Time,TemperatureF,DewpointF,PressureIn,WindDirection,WindDirectionDegrees,WindSpeedMPH,WindSpeedGustMPH,Humidity,HourlyPrecipIn,Conditions,Clouds,dailyrainin,SolarRadiationWatts/m^2,SoftwareType,DateUTC
2013-12-01 00:01:00,42.4,40.6,30.28,SSE,163,0.0,0.0,93,0.00,,,-99.99,0.0,meteobridge,2013-12-01 06:01:00,
2013-12-01 00:04:00,42.4,40.6,30.28,SSE,163,0.0,0.0,93,0.00,,,0.00,0.0,meteobridge,2013-12-01 06:04:00,
2013-12-01 00:05:00,42.3,40.5,30.28,SSE,163,0.0,0.0,93,0.00,,,0.00,0.0,meteobridge,2013-12-01 06:05:00,
2013-12-01 00:06:00,42.3,40.5,30.28,SSE,163,0.0,0.0,93,0.00,,,0.00,0.0,meteobridge,2013-12-01 06:06:00,
2013-12-01 00:08:00,42.3,40.5,30.28,SSE,163,0.0,0.0,93,0.00,,,0.00,0.0,meteobridge,2013-12-01 06:08:00,
2013-12-01 00:09:00,42.3,40.5,30.28,SSE,163,0.0,0.0,93,0.00,,,0.00,0.0,meteobridge,2013-12-01 06:09:00,
2013-12-01 00:10:00,42.3,40.5,30.28,SSE,163,0.0,0.0,93,0.00,,,0.00,0.0,meteobridge,2013-12-01 06:10:00,
2013-12-01 00:11:00,42.3,40.5,30.28,SSE,163,0.0,0.0,93,0.00,,,0.00,0.0,meteobridge,2013-12-01 06:11:00,
2013-12-01 00:12:00,42.1,40.3,30.28,SSE,163,0.0,0.0,93,0.00,,,0.00,0.0,meteobridge,2013-12-01 06:12:00,
2013-12-01 00:13:00,42.1,40.3,30.28,SSE,163,0.0,0.0,93,0.00,,,0.00,0.0,meteobridge,2013-12-01 06:13:00,
2013-12-01 00:14:00,42.1,40.3,30.28,SSE,163,0.0,0.0,93,0.00,,,0.00,0.0,meteobridge,2013-12-01 06:14:00,
2013-12-01 00:16:00,42.1,40.3,30.28,SSE,163,0.0,0.0,93,0.00,,,0.00,0.0,meteobridge,2013-12-01 06:16:00,
2013-12-01 00:18:00,42.1,40.3,30.28,SSE,163,0.0,0.0,93,0.00,,,0.00,0.0,meteobridge,2013-12-01 06:18:00,
2013-12-01 00:20:00,41.9,40.1,30.28,SSE,163,0.0,0.0,93,0.00,,,0.00,0.0,meteobridge,2013-12-01 06:20:00,
2013-12-01 00:21:00,41.9,40.1,30.28,SSE,163,0.0,0.0,93,0.00,,,0.00,0.0,meteobridge,2013-12-01 06:21:00,
2013-12-01 00:22:00,41.9,40.1,30.28,SSE,163,0.0,0.0,93,0.00,,,0.00,0.0,meteobridge,2013-12-01 06:22:00,
2013-12-01 00:23:00,41.7,39.9,30.28,SSE,163,0.0,0.0,93,0.00,,,0.00,0.0,meteobridge,2013-12-01 06:23:00,
2013-12-01 00:26:00,41.7,39.9,30.28,SSE,163,0.0,0.0,93,0.00,,,0.00,0.0,meteobridge,2013-12-01 06:26:00,
2013-12-01 00:27:00,41.7,39.9,30.28,SSE,163,0.0,0.0,93,0.00,,,0.00,0.0,meteobridge,2013-12-01 06:27:00,
2013-12-01 00:28:00,41.7,39.9,30.28,SSE,163,0.0,0.0,93,0.00,,,0.00,0.0,meteobridge,2013-12-01 06:28:00,
2013-12-01 00:30:00,41.5,39.7,30.28,SSE,163,0.0,0.0,93,0.00,,,0.00,0.0,meteobridge,2013-12-01 06:30:00,
2013-12-01 00:32:00,41.5,39.7,30.28,SSE,163,0.0,0.0,93,0.00,,,0.00,0.0,meteobridge,2013-12-01 06:32:00,
2013-12-01 00:34:00,41.5,39.7,30.28,SSE,163,0.0,0.0,93,0.00,,,0.00,0.0,meteobridge,2013-12-01 06:34:00,
2013-12-01 00:35:00,41.5,39.7,30.28,SSE,163,0.0,0.0,93,0.00,,,0.00,0.0,meteobridge,2013-12-01 06:35:00,
2013-12-01 00:36:00,41.5,39.7,30.28,SSE,163,0.0,0.0,93,0.00,,,0.00,0.0,meteobridge,2013-12-01 06:36:00,
2013-12-01 00:37:00,41.4,39.6,30.28,SSE,163,0.0,0.0,93,0.00,,,0.00,0.0,meteobridge,2013-12-01 06:37:00,
2013-12-01 00:39:00,41.4,39.6,30.28,SSE,163,0.0,0.0,93,0.00,,,0.00,0.0,meteobridge,2013-12-01 06:39:00,
2013-12-01 00:41:00,41.4,39.6,30.28,SSE,163,0.0,0.0,93,0.00,,,0.00,0.0,meteobridge,2013-12-01 06:41:00,
2013-12-01 00:42:00,41.4,39.6,30.28,SSE,163,0.0,0.0,93,0.00,,,0.00,0.0,meteobridge,2013-12-01 06:42:00,
2013-12-01 00:43:00,41.4,39.6,30.28,SSE,163,0.0,0.0,93,0.00,,,0.00,0.0,meteobridge,2013-12-01 06:43:00,
2013-12-01 00:44:00,41.4,39.6,30.28,SSE,163,0.0,0.0,93,0.00,,,0.00,0.0,meteobridge,2013-12-01 06:44:00,
2013-12-01 00:46:00,41.2,39.4,30.27,SSE,163,0.0,0.0,93,0.00,,,0.00,0.0,meteobridge,2013-12-01 06:46:00,
2013-12-01 00:47:00,41.2,39.4,30.27,SSE,163,0.0,0.0,93,0.00,,,0.00,0.0,meteobridge,2013-12-01 06:47:00,
2013-12-01 00:50:00,41.2,39.4,30.27,SSE,163,0.0,0.0,93,0.00,,,0.00,0.0,meteobridge,2013-12-01 06:50:00,
2013-12-01 00:51:00,41.2,39.4,30.27,SSE,163,0.0,0.0,93,0.00,,,0.00,0.0,meteobridge,2013-12-01 06:51:00,
2013-12-01 00:53:00,41.2,39.4,30.27,SSE,163,0.0,0.0,93,0.00,,,0.00,0.0,meteobridge,2013-12-01 06:53:00,
2013-12-01 00:54:00,41.2,39.4,30.27,SSE,163,0.0,0.0,93,0.00,,,0.00,0.0,meteobridge,2013-12-01 06:54:00,
2013-12-01 00:56:00,41.0,39.2,30.27,SSE,163,0.0,0.0,93,0.00,,,0.00,0.0,meteobridge,2013-12-01 06:56:00,
2013-12-01 00:58:00,41.0,40.5,30.27,SSE,163,0.0,0.0,98,0.00,,,0.00,0.0,meteobridge,2013-12-01 06:58:00,
2013-12-01 00:59:00,40.8,39.0,30.27,SSE,163,0.0,0.0,93,0.00,,,0.00,0.0,meteobridge,2013-12-01 06:59:00,
2013-12-01 01:00:00,41.0,39.2,30.27,SSE,163,0.0,0.0,93,0.00,,,0.00,0.0,meteobridge,2013-12-01 07:00:00,
2013-12-01 01:01:00,40.8,39.0,30.27,SSE,163,0.0,0.0,93,0.00,,,0.00,0.0,meteobridge,2013-12-01 07:01:00,
2013-12-01 01:02:00,40.8,39.0,30.27,SSE,163,0.0,0.0,93,0.00,,,0.00,0.0,meteobridge,2013-12-01 07:02:00,
2013-12-01 01:05:00,40.8,39.0,30.27,SSE,163,0.0,0.0,93,0.00,,,0.00,0.0,meteobridge,2013-12-01 07:05:00,
2013-12-01 01:07:00,40.8,39.0,30.28,SSE,163,0.0,0.0,93,0.00,,,0.00,0.0,meteobridge,2013-12-01 07:07:00,
2013-12-01 01:11:00,40.8,39.0,30.28,SSE,163,0.0,0.0,93,0.00,,,0.00,0.0,meteobridge,2013-12-01 07:11:00,
2013-12-01 01:12:00,40.8,39.0,30.28,SSE,163,0.0,0.0,93,0.00,,,0.00,0.0,meteobridge,2013-12-01 07:12:00,
2013-12-01 01:13:00,40.8,39.0,30.28,SSE,163,0.0,0.0,93,0.00,,,0.00,0.0,meteobridge,2013-12-01 07:13:00,
2013-12-01 01:14:00,40.8,39.0,30.28,SSE,163,0.0,0.0,93,0.00,,,0.00,0.0,meteobridge,2013-12-01 07:14:00,
2013-12-01 01:16:00,41.0,39.2,30.28,SSE,163,0.0,0.0,93,0.00,,,0.00,0.0,meteobridge,2013-12-01 07:16:00,
2013-12-01 01:17:00,41.0,39.2,30.28,SSE,163,0.0,0.0,93,0.00,,,0.00,0.0,meteobridge,2013-12-01 07:17:00,
2013-12-01 01:19:00,41.2,39.4,30.28,SSE,163,0.0,0.0,93,0.00,,,0.00,0.0,meteobridge,2013-12-01 07:19:00,
2013-12-01 01:20:00,41.2,39.4,30.28,SSE,163,0.0,0.0,93,0.00,,,0.00,0.0,meteobridge,2013-12-01 07:20:00,
2013-12-01 01:21:00,41.2,39.4,30.28,SSE,163,0.0,0.0,93,0.00,,,0.00,0.0,meteobridge,2013-12-01 07:21:00,
2013-12-01 01:22:00,41.2,39.6,30.28,SSE,163,0.0,0.0,94,0.00,,,0.00,0.0,meteobridge,2013-12-01 07:22:00,
2013-12-01 01:23:00,41.2,39.6,30.27,SSE,163,0.0,0.0,94,0.00,,,0.00,0.0,meteobridge,2013-12-01 07:23:00,
2013-12-01 01:24:00,41.2,39.6,30.27,SSE,163,0.0,0.0,94,0.00,,,0.00,0.0,meteobridge,2013-12-01 07:24:00,
2013-12-01 01:25:00,41.2,39.6,30.27,SSE,163,0.0,0.0,94,0.00,,,0.00,0.0,meteobridge,2013-12-01 07:25:00,
2013-12-01 01:27:00,41.4,39.7,30.27,SSE,163,0.0,0.0,94,0.00,,,0.00,0.0,meteobridge,2013-12-01 07:27:00,
2013-12-01 01:29:00,41.4,39.7,30.27,SSE,163,0.0,0.0,94,0.00,,,0.00,0.0,meteobridge,2013-12-01 07:29:00,
2013-12-01 01:30:00,41.5,39.9,30.27,SSE,163,0.0,0.0,94,0.00,,,0.00,0.0,meteobridge,2013-12-01 07:30:00,
2013-12-01 01:31:00,41.5,39.9,30.27,SSE,163,0.0,0.0,94,0.00,,,0.00,0.0,meteobridge,2013-12-01 07:31:00,
2013-12-01 01:32:00,41.5,39.9,30.27,SSE,163,0.0,0.0,94,0.00,,,0.00,0.0,meteobridge,2013-12-01 07:32:00,
2013-12-01 01:34:00,41.7,40.1,30.27,SSE,163,0.0,0.0,94,0.00,,,0.00,0.0,meteobridge,2013-12-01 07:34:00,
2013-12-01 01:35:00,41.7,40.1,30.27,SSE,163,0.0,0.0,94,0.00,,,0.00,0.0,meteobridge,2013-12-01 07:35:00,
2013-12-01 01:38:00,41.7,40.1,30.27,SSE,163,0.0,0.0,94,0.00,,,0.00,0.0,meteobridge,2013-12-01 07:38:00,
2013-12-01 01:40:00,41.9,40.3,30.27,SSE,163,0.0,0.0,94,0.00,,,0.00,0.0,meteobridge,2013-12-01 07:40:00,
2013-12-01 01:41:00,41.9,40.3,30.27,SSE,163,0.0,0.0,94,0.00,,,0.00,0.0,meteobridge,2013-12-01 07:41:00,
2013-12-01 01:42:00,42.1,40.5,30.27,SSE,163,0.0,0.0,94,0.00,,,0.00,0.0,meteobridge,2013-12-01 07:42:00,
2013-12-01 01:43:00,42.1,40.5,30.27,SSE,163,0.0,0.0,94,0.00,,,0.00,0.0,meteobridge,2013-12-01 07:43:00,
2013-12-01 01:46:00,42.3,41.0,30.27,SSE,163,0.0,0.0,95,0.00,,,0.00,0.0,meteobridge,2013-12-01 07:46:00,
2013-12-01 01:47:00,42.3,40.6,30.27,SSE,163,0.0,0.0,94,0.00,,,0.00,0.0,meteobridge,2013-12-01 07:47:00,
2013-12-01 01:48:00,42.3,40.6,30.27,SSE,163,0.0,0.0,94,0.00,,,0.00,0.0,meteobridge,2013-12-01 07:48:00,
2013-12-01 01:49:00,42.3,40.6,30.27,SSE,163,0.0,0.0,94,0.00,,,0.00,0.0,meteobridge,2013-12-01 07:49:00,
2013-12-01 01:51:00,42.4,41.2,30.27,SSE,163,0.0,0.0,95,0.00,,,0.00,0.0,meteobridge,2013-12-01 07:51:00,
2013-12-01 01:52:00,42.6,41.4,30.27,SSE,163,0.0,0.0,95,0.00,,,0.00,0.0,meteobridge,2013-12-01 07:52:00,
2013-12-01 01:54:00,42.6,41.4,30.27,SSE,163,0.0,0.0,95,0.00,,,0.00,0.0,meteobridge,2013-12-01 07:54:00,
2013-12-01 01:55:00,42.6,41.4,30.27,SSE,163,0.0,0.0,95,0.00,,,0.00,0.0,meteobridge,2013-12-01 07:55:00,
2013-12-01 01:56:00,42.8,41.5,30.27,SSE,163,0.0,0.0,95,0.00,,,0.00,0.0,meteobridge,2013-12-01 07:56:00,
2013-12-01 01:57:00,42.8,41.5,30.27,SSE,163,0.0,0.0,95,0.00,,,0.00,0.0,meteobridge,2013-12-01 07:57:00,
2013-12-01 01:59:00,42.8,41.5,30.27,SSE,163,0.0,0.0,95,0.00,,,0.00,0.0,meteobridge,2013-12-01 07:59:00,
2013-12-01 02:02:00,43.0,41.7,30.27,SSE,163,0.0,0.0,95,0.00,,,0.00,0.0,meteobridge,2013-12-01 08:02:00,
2013-12-01 02:03:00,43.0,41.7,30.27,SSE,163,0.0,0.0,95,0.00,,,0.00,0.0,meteobridge,2013-12-01 08:03:00,
2013-12-01 02:04:00,43.0,41.7,30.27,SSE,163,0.0,0.0,95,0.00,,,0.00,0.0,meteobridge,2013-12-01 08:04:00,
2013-12-01 02:08:00,43.2,41.9,30.27,SSE,163,0.0,0.0,95,0.00,,,0.00,0.0,meteobridge,2013-12-01 08:08:00,
2013-12-01 02:09:00,43.2,41.9,30.27,SSE,163,0.0,0.0,95,0.00,,,0.00,0.0,meteobridge,2013-12-01 08:09:00,
2013-12-01 02:12:00,43.2,41.9,30.27,SSE,163,0.0,0.0,95,0.00,,,0.00,0.0,meteobridge,2013-12-01 08:12:00,
2013-12-01 02:13:00,43.2,41.9,30.27,SSE,163,0.0,0.0,95,0.00,,,0.00,0.0,meteobridge,2013-12-01 08:13:00,
2013-12-01 02:14:00,43.3,42.1,30.27,SSE,163,0.0,0.0,95,0.00,,,0.00,0.0,meteobridge,2013-12-01 08:14:00,
2013-12-01 02:19:00,43.3,42.1,30.27,SSE,163,0.0,0.0,95,0.00,,,0.00,0.0,meteobridge,2013-12-01 08:19:00,
2013-12-01 02:20:00,43.3,42.1,30.27,SSE,163,0.0,0.0,95,0.00,,,0.00,0.0,meteobridge,2013-12-01 08:20:00,
2013-12-01 02:24:00,43.5,42.3,30.27,SSE,163,0.0,0.0,95,0.00,,,0.00,0.0,meteobridge,2013-12-01 08:24:00,
2013-12-01 02:25:00,43.7,42.4,30.27,SSE,163,0.0,0.0,95,0.00,,,0.00,0.0,meteobridge,2013-12-01 08:25:00,
2013-12-01 02:27:00,43.7,42.4,30.27,SSE,163,0.0,0.0,95,0.00,,,0.00,0.0,meteobridge,2013-12-01 08:27:00,
2013-12-01 02:28:00,43.7,42.4,30.27,SSE,163,0.0,0.0,95,0.00,,,0.00,0.0,meteobridge,2013-12-01 08:28:00,
2013-12-01 02:29:00,43.9,42.6,30.27,SSE,163,0.0,0.0,95,0.00,,,0.00,0.0,meteobridge,2013-12-01 08:29:00,
2013-12-01 02:30:00,43.9,42.6,30.27,SSE,163,0.0,0.0,95,0.00,,,0.00,0.0,meteobridge,2013-12-01 08:30:00,
2013-12-01 02:32:00,43.9,42.6,30.27,SSE,163,0.0,0.0,95,0.00,,,0.00,0.0,meteobridge,2013-12-01 08:32:00,
2013-12-01 02:34:00,43.9,42.6,30.27,SSE,163,0.0,0.0,95,0.00,,,0.00,0.0,meteobridge,2013-12-01 08:34:00,
2013-12-01 02:35:00,43.9,42.6,30.27,SSE,163,0.0,0.0,95,0.00,,,0.00,0.0,meteobridge,2013-12-01 08:35:00,
2013-12-01 02:36:00,43.9,42.6,30.27,SSE,163,0.0,0.0,95,0.00,,,0.00,0.0,meteobridge,2013-12-01 08:36:00,
2013-12-01 02:39:00,44.1,42.8,30.27,SSE,163,0.0,0.0,95,0.00,,,0.00,0.0,meteobridge,2013-12-01 08:39:00,
2013-12-01 02:41:00,44.1,42.8,30.27,SSE,163,0.0,0.0,95,0.00,,,0.00,0.0,meteobridge,2013-12-01 08:41:00,
2013-12-01 02:42:00,44.1,42.8,30.27,SSE,163,0.0,0.0,95,0.00,,,0.00,0.0,meteobridge,2013-12-01 08:42:00,
2013-12-01 02:43:00,44.1,42.8,30.27,SSE,163,0.0,0.0,95,0.00,,,0.00,0.0,meteobridge,2013-12-01 08:43:00,
2013-12-01 02:45:00,44.1,42.8,30.27,SSE,163,0.0,0.0,95,0.00,,,0.00,0.0,meteobridge,2013-12-01 08:45:00,
2013-12-01 02:46:00,44.1,42.8,30.27,SSE,163,0.0,0.0,95,0.00,,,0.00,0.0,meteobridge,2013-12-01 08:46:00,
2013-12-01 02:47:00,44.2,43.0,30.27,SSE,163,0.0,0.0,95,0.00,,,0.00,0.0,meteobridge,2013-12-01 08:47:00,
2013-12-01 02:48:00,44.2,43.0,30.27,SSE,163,0.0,0.0,95,0.00,,,0.00,0.0,meteobridge,2013-12-01 08:48:00,
2013-12-01 02:50:00,44.2,43.0,30.27,SSE,163,0.0,0.0,95,0.00,,,0.00,0.0,meteobridge,2013-12-01 08:50:00,
2013-12-01 02:51:00,44.2,43.0,30.27,SSE,163,0.0,0.0,95,0.00,,,0.00,0.0,meteobridge,2013-12-01 08:51:00,
2013-12-01 02:53:00,44.2,43.2,30.27,SSE,163,0.0,0.0,96,0.00,,,0.00,0.0,meteobridge,2013-12-01 08:53:00,
2013-12-01 02:55:00,44.4,43.2,30.27,SSE,163,0.0,0.0,95,0.00,,,0.00,0.0,meteobridge,2013-12-01 08:55:00,
2013-12-01 02:56:00,44.4,43.2,30.27,SSE,163,0.0,0.0,95,0.00,,,0.00,0.0,meteobridge,2013-12-01 08:56:00,
2013-12-01 02:57:00,44.4,43.2,30.27,SSE,163,0.0,0.0,95,0.00,,,0.00,0.0,meteobridge,2013-12-01 08:57:00,
2013-12-01 02:58:00,44.4,43.2,30.27,SSE,163,0.0,0.0,95,0.00,,,0.00,0.0,meteobridge,2013-12-01 08:58:00,
2013-12-01 02:59:00,44.6,43.3,30.27,SSE,163,0.0,0.0,95,0.00,,,0.00,0.0,meteobridge,2013-12-01 08:59:00,
2013-12-01 03:00:00,44.6,43.3,30.27,SSE,163,0.0,0.0,95,0.00,,,0.00,0.0,meteobridge,2013-12-01 09:00:00,
2013-12-01 03:02:00,44.8,43.5,30.27,SSE,163,0.0,0.0,95,0.00,,,0.00,0.0,meteobridge,2013-12-01 09:02:00,
2013-12-01 03:03:00,44.8,43.5,30.27,SSE,163,0.0,0.0,95,0.00,,,0.00,0.0,meteobridge,2013-12-01 09:03:00,
2013-12-01 03:05:00,44.8,43.5,30.27,SSE,163,0.0,0.0,95,0.00,,,0.00,0.0,meteobridge,2013-12-01 09:05:00,
2013-12-01 03:07:00,44.8,43.7,30.27,SSE,163,0.0,0.0,96,0.00,,,0.00,0.0,meteobridge,2013-12-01 09:07:00,
2013-12-01 03:08:00,44.8,43.7,30.27,SSE,163,0.0,0.0,96,0.00,,,0.00,0.0,meteobridge,2013-12-01 09:08:00,
2013-12-01 03:09:00,44.8,43.7,30.27,SSE,163,0.0,0.0,96,0.00,,,0.00,0.0,meteobridge,2013-12-01 09:09:00,
2013-12-01 03:10:00,45.0,43.9,30.27,SSE,163,0.0,0.0,96,0.00,,,0.00,0.0,meteobridge,2013-12-01 09:10:00,
2013-12-01 03:13:00,45.0,43.9,30.27,SSE,163,0.0,0.0,96,0.00,,,0.00,0.0,meteobridge,2013-12-01 09:13:00,
2013-12-01 03:14:00,45.0,43.9,30.27,SSE,163,0.0,0.0,96,0.00,,,0.00,0.0,meteobridge,2013-12-01 09:14:00,
2013-12-01 03:15:00,45.0,43.9,30.27,SSE,163,0.0,0.0,96,0.00,,,0.00,0.0,meteobridge,2013-12-01 09:15:00,
2013-12-01 03:16:00,45.0,43.9,30.27,SSE,163,0.0,0.0,96,0.00,,,0.00,0.0,meteobridge,2013-12-01 09:16:00,
2013-12-01 03:17:00,45.0,43.9,30.27,SSE,163,0.0,0.0,96,0.00,,,0.00,0.0,meteobridge,2013-12-01 09:17:00,
2013-12-01 03:19:00,45.1,44.1,30.27,SSE,163,0.0,0.0,96,0.00,,,0.00,0.0,meteobridge,2013-12-01 09:19:00,
2013-12-01 03:20:00,45.1,44.1,30.27,SSE,163,0.0,0.0,96,0.00,,,0.00,0.0,meteobridge,2013-12-01 09:20:00,
2013-12-01 03:21:00,45.1,44.1,30.27,SSE,163,0.0,0.0,96,0.00,,,0.00,0.0,meteobridge,2013-12-01 09:21:00,
2013-12-01 03:22:00,45.1,44.1,30.27,SSE,163,0.0,0.0,96,0.00,,,0.00,0.0,meteobridge,2013-12-01 09:22:00,
2013-12-01 03:23:00,45.1,44.1,30.27,SSE,163,0.0,0.0,96,0.00,,,0.00,0.0,meteobridge,2013-12-01 09:23:00,
2013-12-01 03:24:00,45.1,44.1,30.27,SSE,163,0.0,0.0,96,0.00,,,0.00,0.0,meteobridge,2013-12-01 09:24:00,
2013-12-01 03:25:00,45.1,44.1,30.27,SSE,163,0.0,0.0,96,0.00,,,0.00,0.0,meteobridge,2013-12-01 09:25:00,
2013-12-01 03:26:00,45.1,44.1,30.27,SSE,163,0.0,0.0,96,0.00,,,0.00,0.0,meteobridge,2013-12-01 09:26:00,
2013-12-01 03:28:00,45.3,44.2,30.27,SSE,163,0.0,0.0,96,0.00,,,0.00,0.0,meteobridge,2013-12-01 09:28:00,
2013-12-01 03:30:00,45.3,44.2,30.27,SSE,163,0.0,0.0,96,0.00,,,0.00,0.0,meteobridge,2013-12-01 09:30:00,
2013-12-01 03:32:00,45.3,44.2,30.27,SSE,163,0.0,0.0,96,0.00,,,0.00,0.0,meteobridge,2013-12-01 09:32:00,
2013-12-01 03:33:00,45.3,44.2,30.27,SSE,163,0.0,0.0,96,0.00,,,0.00,0.0,meteobridge,2013-12-01 09:33:00,
2013-12-01 03:34:00,45.5,44.4,30.27,SSE,163,0.0,0.0,96,0.00,,,0.00,0.0,meteobridge,2013-12-01 09:34:00,
2013-12-01 03:37:00,45.5,45.5,30.27,SSE,163,0.0,0.0,100,0.00,,,0.00,0.0,meteobridge,2013-12-01 09:37:00,
2013-12-01 03:39:00,45.7,44.6,30.27,SSE,163,0.0,0.0,96,0.00,,,0.00,0.0,meteobridge,2013-12-01 09:39:00,
2013-12-01 03:40:00,45.7,44.6,30.27,SSE,163,0.0,0.0,96,0.00,,,0.00,0.0,meteobridge,2013-12-01 09:40:00,
2013-12-01 03:42:00,45.7,44.6,30.27,SSE,163,0.0,0.0,96,0.00,,,0.00,0.0,meteobridge,2013-12-01 09:42:00,
2013-12-01 03:43:00,45.7,44.6,30.27,SSE,163,0.0,0.0,96,0.00,,,0.00,0.0,meteobridge,2013-12-01 09:43:00,
2013-12-01 03:44:00,45.7,44.6,30.27,SSE,163,0.0,0.0,96,0.00,,,0.00,0.0,meteobridge,2013-12-01 09:44:00,
2013-12-01 03:45:00,45.9,44.8,30.27,SSE,163,0.0,0.0,96,0.00,,,0.00,0.0,meteobridge,2013-12-01 09:45:00,
2013-12-01 03:46:00,45.9,44.8,30.27,SSE,163,0.0,0.0,96,0.00,,,0.00,0.0,meteobridge,2013-12-01 09:46:00,
2013-12-01 03:47:00,45.9,44.8,30.26,SSE,163,0.0,0.0,96,0.00,,,0.00,0.0,meteobridge,2013-12-01 09:47:00,
2013-12-01 03:48:00,45.9,44.8,30.26,SSE,163,0.0,0.0,96,0.00,,,0.00,0.0,meteobridge,2013-12-01 09:48:00,
2013-12-01 03:50:00,45.9,44.8,30.26,SSE,163,0.0,0.0,96,0.00,,,0.00,0.0,meteobridge,2013-12-01 09:50:00,
2013-12-01 03:51:00,45.9,44.8,30.27,SSE,163,0.0,0.0,96,0.00,,,0.00,0.0,meteobridge,2013-12-01 09:51:00,
2013-12-01 03:53:00,46.0,45.0,30.27,SSE,163,0.0,0.0,96,0.00,,,0.00,0.0,meteobridge,2013-12-01 09:53:00,
2013-12-01 03:55:00,46.0,45.0,30.27,SSE,163,0.0,0.0,96,0.00,,,0.00,0.0,meteobridge,2013-12-01 09:55:00,
2013-12-01 03:56:00,46.0,45.0,30.26,SSE,163,0.0,0.0,96,0.00,,,0.00,0.0,meteobridge,2013-12-01 09:56:00,
2013-12-01 03:58:00,46.2,45.1,30.26,SSE,163,0.0,0.0,96,0.00,,,0.00,0.0,meteobridge,2013-12-01 09:58:00,
2013-12-01 04:01:00,46.2,45.1,30.26,SSE,163,0.0,0.0,96,0.00,,,0.00,0.0,meteobridge,2013-12-01 10:01:00,
2013-12-01 04:03:00,46.2,45.1,30.26,SSE,163,0.0,0.0,96,0.00,,,0.00,0.0,meteobridge,2013-12-01 10:03:00,
2013-12-01 04:04:00,46.2,45.1,30.26,SSE,163,0.0,0.0,96,0.00,,,0.00,0.0,meteobridge,2013-12-01 10:04:00,
2013-12-01 04:05:00,46.2,45.1,30.26,SSE,163,0.0,0.0,96,0.00,,,0.00,0.0,meteobridge,2013-12-01 10:05:00,
2013-12-01 04:06:00,46.2,45.1,30.26,SSE,163,0.0,0.0,96,0.00,,,0.00,0.0,meteobridge,2013-12-01 10:06:00,
2013-12-01 04:09:00,46.4,45.3,30.26,SSE,163,0.0,0.0,96,0.00,,,0.00,0.0,meteobridge,2013-12-01 10:09:00,
2013-12-01 04:10:00,46.4,45.3,30.26,SSE,163,0.0,0.0,96,0.00,,,0.00,0.0,meteobridge,2013-12-01 10:10:00,
2013-12-01 04:11:00,46.6,45.5,30.26,SSE,163,0.0,0.0,96,0.00,,,0.00,0.0,meteobridge,2013-12-01 10:11:00,
2013-12-01 04:12:00,46.6,45.5,30.26,SSE,163,0.0,0.0,96,0.00,,,0.00,0.0,meteobridge,2013-12-01 10:12:00,
2013-12-01 04:15:00,46.6,45.5,30.26,SSE,163,0.0,0.0,96,0.00,,,0.00,0.0,meteobridge,2013-12-01 10:15:00,
2013-12-01 04:16:00,46.6,45.5,30.26,SSE,163,0.0,0.0,96,0.00,,,0.00,0.0,meteobridge,2013-12-01 10:16:00,
2013-12-01 04:17:00,46.8,45.7,30.26,SSE,163,0.0,0.0,96,0.00,,,0.00,0.0,meteobridge,2013-12-01 10:17:00,
2013-12-01 04:21:00,46.8,45.7,30.27,SSE,163,0.0,0.0,96,0.00,,,0.00,0.0,meteobridge,2013-12-01 10:21:00,
2013-12-01 04:22:00,46.9,45.9,30.27,SSE,163,0.0,0.0,96,0.00,,,0.00,0.0,meteobridge,2013-12-01 10:22:00,
2013-12-01 04:23:00,46.9,45.9,30.27,SSE,163,0.0,0.0,96,0.00,,,0.00,0.0,meteobridge,2013-12-01 10:23:00,
2013-12-01 04:25:00,46.9,45.9,30.27,SSE,163,0.0,0.0,96,0.00,,,0.00,0.0,meteobridge,2013-12-01 10:25:00,
2013-12-01 04:27:00,46.9,45.9,30.27,SSE,163,0.0,0.0,96,0.00,,,0.00,0.0,meteobridge,2013-12-01 10:27:00,
2013-12-01 04:30:00,46.9,45.9,30.26,SSE,163,0.0,0.0,96,0.00,,,0.00,0.0,meteobridge,2013-12-01 10:30:00,
2013-12-01 04:31:00,46.9,45.9,30.26,SSE,163,0.0,0.0,96,0.00,,,0.00,0.0,meteobridge,2013-12-01 10:31:00,
2013-12-01 04:32:00,46.9,45.9,30.26,SSE,163,0.0,0.0,96,0.00,,,0.00,0.0,meteobridge,2013-12-01 10:32:00,
2013-12-01 04:33:00,46.9,45.9,30.27,SSE,163,0.0,0.0,96,0.00,,,0.00,0.0,meteobridge,2013-12-01 10:33:00,
2013-12-01 04:34:00,47.1,46.0,30.27,SSE,163,0.0,0.0,96,0.00,,,0.00,0.0,meteobridge,2013-12-01 10:34:00,
2013-12-01 04:36:00,47.1,46.0,30.27,SSE,163,0.0,0.0,96,0.00,,,0.00,0.0,meteobridge,2013-12-01 10:36:00,
2013-12-01 04:37:00,47.1,46.0,30.27,SSE,163,0.0,0.0,96,0.00,,,0.00,0.0,meteobridge,2013-12-01 10:37:00,
2013-12-01 04:39:00,47.1,46.0,30.27,SSE,163,0.0,0.0,96,0.00,,,0.00,0.0,meteobridge,2013-12-01 10:39:00,
2013-12-01 04:42:00,47.1,46.0,30.27,SSE,163,0.0,0.0,96,0.00,,,0.00,0.0,meteobridge,2013-12-01 10:42:00,
2013-12-01 04:43:00,47.1,46.0,30.27,SSE,163,0.0,0.0,96,0.00,,,0.00,0.0,meteobridge,2013-12-01 10:43:00,
2013-12-01 04:45:00,47.3,46.2,30.27,SSE,163,0.0,0.0,96,0.00,,,0.00,0.0,meteobridge,2013-12-01 10:45:00,
2013-12-01 04:46:00,47.3,46.2,30.27,SSE,163,0.0,0.0,96,0.00,,,0.00,0.0,meteobridge,2013-12-01 10:46:00,
2013-12-01 04:47:00,47.3,46.2,30.27,SSE,163,0.0,0.0,96,0.00,,,0.00,0.0,meteobridge,2013-12-01 10:47:00,
2013-12-01 04:48:00,47.3,46.2,30.27,SSE,163,0.0,0.0,96,0.00,,,0.00,0.0,meteobridge,2013-12-01 10:48:00,
2013-12-01 04:49:00,47.3,46.2,30.27,SSE,163,0.0,0.0,96,0.00,,,0.00,0.0,meteobridge,2013-12-01 10:49:00,
2013-12-01 04:52:00,47.5,46.4,30.26,SSE,163,0.0,0.0,96,0.00,,,0.00,0.0,meteobridge,2013-12-01 10:52:00,
2013-12-01 04:53:00,47.5,46.4,30.26,SSE,163,0.0,0.0,96,0.00,,,0.00,0.0,meteobridge,2013-12-01 10:53:00,
2013-12-01 04:54:00,47.5,46.4,30.26,SSE,163,0.0,0.0,96,0.00,,,0.00,0.0,meteobridge,2013-12-01 10:54:00,
2013-12-01 04:56:00,47.5,46.4,30.26,SSE,163,0.0,0.0,96,0.00,,,0.00,0.0,meteobridge,2013-12-01 10:56:00,
2013-12-01 04:58:00,47.5,46.4,30.26,SSE,163,0.0,0.0,96,0.00,,,0.00,0.0,meteobridge,2013-12-01 10:58:00,
2013-12-01 05:00:00,47.5,46.4,30.25,SSE,163,0.0,0.0,96,0.00,,,0.00,0.0,meteobridge,2013-12-01 11:00:00,
2013-12-01 05:04:00,47.5,46.4,30.26,SSE,163,0.0,0.0,96,0.00,,,0.00,0.0,meteobridge,2013-12-01 11:04:00,
2013-12-01 05:05:00,47.5,46.4,30.26,SSE,163,0.0,0.0,96,0.00,,,0.00,0.0,meteobridge,2013-12-01 11:05:00,
2013-12-01 05:06:00,47.5,46.4,30.26,SSE,163,0.0,0.0,96,0.01,,,0.01,0.0,meteobridge,2013-12-01 11:06:00,
2013-12-01 05:07:00,47.7,46.6,30.26,SSE,163,0.0,0.0,96,0.01,,,0.01,0.0,meteobridge,2013-12-01 11:07:00,
2013-12-01 05:09:00,47.5,46.4,30.26,SSE,163,0.0,0.0,96,0.01,,,0.01,0.0,meteobridge,2013-12-01 11:09:00,
2013-12-01 05:10:00,47.7,46.6,30.26,SSE,163,0.0,0.0,96,0.01,,,0.01,0.0,meteobridge,2013-12-01 11:10:00,
2013-12-01 05:11:00,47.7,46.6,30.26,SSE,163,0.0,0.0,96,0.01,,,0.01,0.0,meteobridge,2013-12-01 11:11:00,
2013-12-01 05:14:00,47.7,46.6,30.26,SSE,163,0.0,0.0,96,0.01,,,0.01,0.0,meteobridge,2013-12-01 11:14:00,
2013-12-01 05:17:00,47.7,46.6,30.26,SSE,163,0.0,0.0,96,0.01,,,0.01,0.0,meteobridge,2013-12-01 11:17:00,
2013-12-01 05:18:00,47.7,46.6,30.26,SSE,163,0.0,0.0,96,0.01,,,0.01,0.0,meteobridge,2013-12-01 11:18:00,
2013-12-01 05:22:00,47.7,46.6,30.26,SSE,163,0.0,0.0,96,0.01,,,0.01,0.0,meteobridge,2013-12-01 11:22:00,
2013-12-01 05:24:00,47.7,46.6,30.26,SSE,163,0.0,0.0,96,0.01,,,0.01,0.0,meteobridge,2013-12-01 11:24:00,
2013-12-01 05:25:00,47.7,46.6,30.26,SSE,163,0.0,0.0,96,0.01,,,0.01,0.0,meteobridge,2013-12-01 11:25:00,
2013-12-01 05:28:00,47.7,46.6,30.26,SSE,163,0.0,0.0,96,0.01,,,0.01,0.0,meteobridge,2013-12-01 11:28:00,
2013-12-01 05:29:00,47.8,46.8,30.26,SSE,163,0.0,0.0,96,0.01,,,0.01,0.0,meteobridge,2013-12-01 11:29:00,
2013-12-01 05:30:00,47.8,46.8,30.26,SSE,163,0.0,0.0,96,0.01,,,0.01,0.0,meteobridge,2013-12-01 11:30:00,
2013-12-01 05:31:00,47.8,46.8,30.26,SSE,163,0.0,0.0,96,0.01,,,0.01,0.0,meteobridge,2013-12-01 11:31:00,
2013-12-01 05:33:00,47.8,46.8,30.26,SSE,163,0.0,0.0,96,0.01,,,0.01,0.0,meteobridge,2013-12-01 11:33:00,
2013-12-01 05:35:00,47.8,46.8,30.26,SSE,163,0.0,0.0,96,0.01,,,0.01,0.0,meteobridge,2013-12-01 11:35:00,
2013-12-01 05:36:00,47.8,46.8,30.26,SSE,163,0.0,0.0,96,0.01,,,0.01,0.0,meteobridge,2013-12-01 11:36:00,
2013-12-01 05:39:00,47.8,46.8,30.26,SSE,163,0.0,0.0,96,0.01,,,0.01,0.0,meteobridge,2013-12-01 11:39:00,
2013-12-01 05:41:00,47.8,46.8,30.26,SSE,163,0.0,0.0,96,0.01,,,0.01,0.0,meteobridge,2013-12-01 11:41:00,
2013-12-01 05:42:00,47.8,46.8,30.26,SSE,163,0.0,0.0,96,0.01,,,0.01,0.0,meteobridge,2013-12-01 11:42:00,
2013-12-01 05:45:00,47.8,46.8,30.26,SSE,163,0.0,0.0,96,0.01,,,0.01,0.0,meteobridge,2013-12-01 11:45:00,
2013-12-01 05:46:00,47.8,46.8,30.26,SSE,163,0.0,0.0,96,0.01,,,0.01,0.0,meteobridge,2013-12-01 11:46:00,
2013-12-01 05:47:00,47.8,46.8,30.26,SSE,163,0.0,0.0,96,0.01,,,0.01,0.0,meteobridge,2013-12-01 11:47:00,
2013-12-01 05:50:00,48.0,46.9,30.25,SSE,163,0.0,0.0,96,0.01,,,0.01,0.0,meteobridge,2013-12-01 11:50:00,
2013-12-01 05:51:00,48.0,46.9,30.25,SSE,163,0.0,0.0,96,0.01,,,0.01,0.0,meteobridge,2013-12-01 11:51:00,
2013-12-01 05:52:00,48.0,46.9,30.25,SSE,163,0.0,0.0,96,0.01,,,0.01,0.0,meteobridge,2013-12-01 11:52:00,
2013-12-01 05:53:00,48.0,46.9,30.25,SSE,163,0.0,0.0,96,0.01,,,0.01,0.0,meteobridge,2013-12-01 11:53:00,
2013-12-01 05:58:00,48.0,46.9,30.25,SSE,163,0.0,0.0,96,0.01,,,0.01,0.0,meteobridge,2013-12-01 11:58:00,
2013-12-01 05:59:00,48.0,46.9,30.25,SSE,163,0.0,0.0,96,0.01,,,0.01,0.0,meteobridge,2013-12-01 11:59:00,
2013-12-01 06:00:00,48.0,46.9,30.25,SSE,163,0.0,0.0,96,0.01,,,0.01,0.0,meteobridge,2013-12-01 12:00:00,
2013-12-01 06:01:00,48.0,46.9,30.25,SSE,163,0.0,0.0,96,0.01,,,0.01,0.0,meteobridge,2013-12-01 12:01:00,
2013-12-01 06:03:00,48.0,46.9,30.25,SSE,163,0.0,0.0,96,0.01,,,0.01,0.0,meteobridge,2013-12-01 12:03:00,
2013-12-01 06:04:00,48.0,46.9,30.25,SSE,163,0.0,0.0,96,0.01,,,0.01,0.0,meteobridge,2013-12-01 12:04:00,
2013-12-01 06:05:00,48.0,46.9,30.25,SSE,163,0.0,0.0,96,0.00,,,0.01,0.0,meteobridge,2013-12-01 12:05:00,
2013-12-01 06:06:00,48.0,46.9,30.25,SSE,163,0.0,0.0,96,0.00,,,0.01,0.0,meteobridge,2013-12-01 12:06:00,
2013-12-01 06:07:00,48.0,46.9,30.26,SSE,163,0.0,0.0,96,0.00,,,0.01,0.0,meteobridge,2013-12-01 12:07:00,
2013-12-01 06:09:00,48.0,46.9,30.26,SSE,163,0.0,0.0,96,0.00,,,0.01,0.0,meteobridge,2013-12-01 12:09:00,
2013-12-01 06:11:00,48.0,46.9,30.26,SSE,163,0.0,0.0,96,0.00,,,0.01,0.0,meteobridge,2013-12-01 12:11:00,
2013-12-01 06:12:00,48.0,46.9,30.26,SSE,163,0.0,0.0,96,0.00,,,0.01,0.0,meteobridge,2013-12-01 12:12:00,
2013-12-01 06:13:00,48.0,46.9,30.26,SSE,163,0.0,0.0,96,0.00,,,0.01,0.0,meteobridge,2013-12-01 12:13:00,
2013-12-01 06:16:00,48.2,47.1,30.26,SSE,163,0.0,0.0,96,0.00,,,0.01,0.0,meteobridge,2013-12-01 12:16:00,
2013-12-01 06:17:00,48.2,47.1,30.26,SSE,163,0.0,0.0,96,0.00,,,0.01,0.0,meteobridge,2013-12-01 12:17:00,
2013-12-01 06:18:00,48.2,48.2,30.26,SSE,163,0.0,0.0,100,0.00,,,0.01,0.0,meteobridge,2013-12-01 12:18:00,
2013-12-01 06:22:00,48.2,48.2,30.26,SSE,163,0.0,0.0,100,0.00,,,0.01,0.0,meteobridge,2013-12-01 12:22:00,
2013-12-01 06:23:00,48.4,47.5,30.26,SSE,163,0.0,0.0,97,0.00,,,0.01,0.0,meteobridge,2013-12-01 12:23:00,
2013-12-01 06:24:00,48.4,47.5,30.26,SSE,163,0.0,0.0,97,0.00,,,0.01,0.0,meteobridge,2013-12-01 12:24:00,
2013-12-01 06:25:00,48.4,47.5,30.26,SSE,163,0.0,0.0,97,0.00,,,0.01,0.0,meteobridge,2013-12-01 12:25:00,
2013-12-01 06:28:00,48.4,47.5,30.26,SSE,163,0.0,0.0,97,0.00,,,0.01,0.0,meteobridge,2013-12-01 12:28:00,
2013-12-01 06:30:00,48.4,47.5,30.26,SSE,163,0.0,0.0,97,0.00,,,0.01,0.0,meteobridge,2013-12-01 12:30:00,
2013-12-01 06:31:00,48.4,47.5,30.26,SSE,163,0.0,0.0,97,0.00,,,0.01,0.0,meteobridge,2013-12-01 12:31:00,
2013-12-01 06:33:00,48.4,47.5,30.26,SSE,163,0.0,0.0,97,0.00,,,0.01,0.0,meteobridge,2013-12-01 12:33:00,
2013-12-01 06:34:00,48.4,47.5,30.26,SSE,163,0.0,0.0,97,0.00,,,0.01,0.0,meteobridge,2013-12-01 12:34:00,
2013-12-01 06:35:00,48.4,47.5,30.26,SSE,163,0.0,0.0,97,0.00,,,0.01,0.0,meteobridge,2013-12-01 12:35:00,
2013-12-01 06:37:00,48.4,47.5,30.25,SSE,163,0.0,0.0,97,0.00,,,0.01,0.0,meteobridge,2013-12-01 12:37:00,
2013-12-01 06:38:00,48.4,47.5,30.26,SSE,163,0.0,0.0,97,0.00,,,0.01,0.0,meteobridge,2013-12-01 12:38:00,
2013-12-01 06:39:00,48.4,47.5,30.26,SSE,163,0.0,0.0,97,0.00,,,0.01,0.0,meteobridge,2013-12-01 12:39:00,
2013-12-01 06:40:00,48.6,47.7,30.26,SSE,163,0.0,0.0,97,0.00,,,0.01,0.0,meteobridge,2013-12-01 12:40:00,
2013-12-01 06:42:00,48.6,47.7,30.26,SSE,163,0.0,0.0,97,0.00,,,0.01,0.0,meteobridge,2013-12-01 12:42:00,
2013-12-01 06:44:00,48.6,47.7,30.26,SSE,163,0.0,0.0,97,0.00,,,0.01,0.0,meteobridge,2013-12-01 12:44:00,
2013-12-01 06:45:00,48.6,47.7,30.26,SSE,163,0.0,0.0,97,0.00,,,0.01,0.0,meteobridge,2013-12-01 12:45:00,
2013-12-01 06:48:00,48.6,47.7,30.26,SSE,163,0.0,0.0,97,0.00,,,0.01,0.0,meteobridge,2013-12-01 12:48:00,
2013-12-01 06:50:00,48.6,47.7,30.26,SSE,163,0.0,0.0,97,0.00,,,0.01,0.0,meteobridge,2013-12-01 12:50:00,
2013-12-01 06:51:00,48.6,47.7,30.26,SSE,163,0.0,0.0,97,0.00,,,0.01,0.0,meteobridge,2013-12-01 12:51:00,
2013-12-01 06:52:00,48.6,47.7,30.26,SSE,163,0.0,0.0,97,0.00,,,0.01,0.0,meteobridge,2013-12-01 12:52:00,
2013-12-01 06:53:00,48.6,47.7,30.26,SSE,163,0.0,0.0,97,0.00,,,0.01,0.0,meteobridge,2013-12-01 12:53:00,
2013-12-01 06:56:00,48.6,47.7,30.26,SSE,163,0.0,0.0,97,0.00,,,0.01,0.0,meteobridge,2013-12-01 12:56:00,
2013-12-01 06:57:00,48.6,47.7,30.26,SSE,163,0.0,0.0,97,0.00,,,0.01,0.0,meteobridge,2013-12-01 12:57:00,
2013-12-01 06:58:00,48.7,47.8,30.26,SSE,163,0.0,0.0,97,0.00,,,0.01,0.0,meteobridge,2013-12-01 12:58:00,
2013-12-01 07:01:00,48.7,47.8,30.26,SSE,163,0.0,0.0,97,0.00,,,0.01,0.0,meteobridge,2013-12-01 13:01:00,
2013-12-01 07:02:00,48.7,47.8,30.26,SSE,163,0.0,0.0,97,0.00,,,0.01,0.0,meteobridge,2013-12-01 13:02:00,
2013-12-01 07:03:00,48.7,47.8,30.26,SSE,163,0.0,0.0,97,0.00,,,0.01,0.0,meteobridge,2013-12-01 13:03:00,
2013-12-01 07:05:00,48.7,47.8,30.26,SSE,163,0.0,0.0,97,0.00,,,0.01,0.0,meteobridge,2013-12-01 13:05:00,
2013-12-01 07:06:00,48.7,47.8,30.26,SSE,163,0.0,0.0,97,0.00,,,0.01,0.0,meteobridge,2013-12-01 13:06:00,
2013-12-01 07:07:00,48.7,47.8,30.26,SSE,163,0.0,0.0,97,0.00,,,0.01,0.0,meteobridge,2013-12-01 13:07:00,
2013-12-01 07:08:00,48.7,47.8,30.26,SSE,163,0.0,0.0,97,0.00,,,0.01,5.0,meteobridge,2013-12-01 13:08:00,
2013-12-01 07:09:00,48.7,47.8,30.26,SSE,163,0.0,0.0,97,0.00,,,0.01,5.0,meteobridge,2013-12-01 13:09:00,
2013-12-01 07:10:00,48.7,47.8,30.26,SSE,163,0.0,0.0,97,0.00,,,0.01,7.0,meteobridge,2013-12-01 13:10:00,
2013-12-01 07:12:00,48.7,47.8,30.26,SSE,163,0.0,0.0,97,0.00,,,0.01,7.0,meteobridge,2013-12-01 13:12:00,
2013-12-01 07:13:00,48.7,47.8,30.26,SSE,163,0.0,0.0,97,0.00,,,0.01,7.0,meteobridge,2013-12-01 13:13:00,
2013-12-01 07:14:00,48.7,47.8,30.26,SSE,163,0.0,0.0,97,0.00,,,0.01,9.0,meteobridge,2013-12-01 13:14:00,
2013-12-01 07:15:00,48.9,48.0,30.26,SSE,163,0.0,0.0,97,0.00,,,0.01,9.0,meteobridge,2013-12-01 13:15:00,
2013-12-01 07:16:00,48.7,47.8,30.26,SSE,163,0.0,0.0,97,0.00,,,0.01,9.0,meteobridge,2013-12-01 13:16:00,
2013-12-01 07:18:00,48.9,48.0,30.27,SSE,163,0.0,0.0,97,0.00,,,0.01,11.0,meteobridge,2013-12-01 13:18:00,
2013-12-01 07:19:00,48.9,48.0,30.27,SSE,163,0.0,0.0,97,0.00,,,0.01,11.0,meteobridge,2013-12-01 13:19:00,
2013-12-01 07:21:00,48.9,48.0,30.27,SSE,163,0.0,0.0,97,0.00,,,0.01,11.0,meteobridge,2013-12-01 13:21:00,
2013-12-01 07:22:00,48.9,48.0,30.27,SSE,163,0.0,0.0,97,0.00,,,0.01,11.0,meteobridge,2013-12-01 13:22:00,
2013-12-01 07:23:00,48.9,48.0,30.27,SSE,163,0.0,0.0,97,0.00,,,0.01,11.0,meteobridge,2013-12-01 13:23:00,
2013-12-01 07:26:00,48.9,48.0,30.27,SSE,163,0.0,0.0,97,0.00,,,0.01,11.0,meteobridge,2013-12-01 13:26:00,
2013-12-01 07:27:00,48.9,48.0,30.27,SSE,163,0.0,0.0,97,0.00,,,0.01,11.0,meteobridge,2013-12-01 13:27:00,
2013-12-01 07:28:00,48.9,48.0,30.27,SSE,163,0.0,0.0,97,0.00,,,0.01,12.0,meteobridge,2013-12-01 13:28:00,
2013-12-01 07:29:00,48.9,48.0,30.26,SSE,163,0.0,0.0,97,0.00,,,0.01,12.0,meteobridge,2013-12-01 13:29:00,
2013-12-01 07:32:00,49.1,48.2,30.26,SSE,163,0.0,0.0,97,0.00,,,0.01,14.0,meteobridge,2013-12-01 13:32:00,
2013-12-01 07:33:00,49.1,48.2,30.26,SSE,163,0.0,0.0,97,0.00,,,0.01,16.0,meteobridge,2013-12-01 13:33:00,
2013-12-01 07:34:00,49.1,48.2,30.26,SSE,163,0.0,0.0,97,0.00,,,0.01,18.0,meteobridge,2013-12-01 13:34:00,
2013-12-01 07:35:00,49.1,48.2,30.26,SSE,163,0.0,0.0,97,0.00,,,0.01,18.0,meteobridge,2013-12-01 13:35:00,
2013-12-01 07:38:00,49.3,48.4,30.26,SSE,163,0.0,0.0,97,0.00,,,0.01,21.0,meteobridge,2013-12-01 13:38:00,
2013-12-01 07:39:00,49.3,48.4,30.26,SSE,163,0.0,0.0,97,0.00,,,0.01,21.0,meteobridge,2013-12-01 13:39:00,
2013-12-01 07:40:00,49.3,48.4,30.27,SSE,163,0.0,0.0,97,0.00,,,0.01,21.0,meteobridge,2013-12-01 13:40:00,
2013-12-01 07:41:00,49.3,48.4,30.27,SSE,163,0.0,0.0,97,0.00,,,0.01,21.0,meteobridge,2013-12-01 13:41:00,
2013-12-01 07:44:00,49.3,48.4,30.27,SSE,163,0.0,0.0,97,0.00,,,0.01,23.0,meteobridge,2013-12-01 13:44:00,
2013-12-01 07:45:00,49.3,48.4,30.27,SSE,163,0.0,0.0,97,0.00,,,0.01,23.0,meteobridge,2013-12-01 13:45:00,
2013-12-01 07:46:00,49.3,48.4,30.27,SSE,163,0.0,0.0,97,0.00,,,0.01,23.0,meteobridge,2013-12-01 13:46:00,
2013-12-01 07:47:00,49.5,48.6,30.27,SSE,163,0.0,0.0,97,0.00,,,0.01,23.0,meteobridge,2013-12-01 13:47:00,
2013-12-01 07:50:00,49.5,48.6,30.27,SSE,163,0.0,0.0,97,0.00,,,0.01,25.0,meteobridge,2013-12-01 13:50:00,
2013-12-01 07:51:00,49.5,48.6,30.27,SSE,163,0.0,0.0,97,0.00,,,0.01,25.0,meteobridge,2013-12-01 13:51:00,
2013-12-01 07:52:00,49.5,48.6,30.27,SSE,163,0.0,0.0,97,0.00,,,0.01,25.0,meteobridge,2013-12-01 13:52:00,
2013-12-01 07:53:00,49.5,48.6,30.27,SSE,163,0.0,0.0,97,0.00,,,0.01,25.0,meteobridge,2013-12-01 13:53:00,
2013-12-01 07:56:00,49.6,48.7,30.27,SSE,163,0.0,0.0,97,0.00,,,0.01,26.0,meteobridge,2013-12-01 13:56:00,
2013-12-01 07:57:00,49.6,48.7,30.27,SSE,163,0.0,0.0,97,0.00,,,0.01,26.0,meteobridge,2013-12-01 13:57:00,
2013-12-01 07:58:00,49.6,48.7,30.27,SSE,163,0.0,0.0,97,0.00,,,0.01,28.0,meteobridge,2013-12-01 13:58:00,
2013-12-01 07:59:00,49.6,48.7,30.27,SSE,163,0.0,0.0,97,0.00,,,0.01,28.0,meteobridge,2013-12-01 13:59:00,
2013-12-01 08:02:00,49.8,48.9,30.27,SSE,163,0.0,0.0,97,0.00,,,0.01,30.0,meteobridge,2013-12-01 14:02:00,
2013-12-01 08:03:00,49.8,48.9,30.27,SSE,163,0.0,0.0,97,0.00,,,0.01,30.0,meteobridge,2013-12-01 14:03:00,
2013-12-01 08:04:00,49.8,48.9,30.27,SSE,163,0.0,0.0,97,0.00,,,0.01,32.0,meteobridge,2013-12-01 14:04:00,
2013-12-01 08:05:00,49.8,48.9,30.26,SSE,163,0.0,0.0,97,0.00,,,0.01,33.0,meteobridge,2013-12-01 14:05:00,
2013-12-01 08:08:00,50.0,49.1,30.26,SSE,163,0.0,0.0,97,0.00,,,0.01,40.0,meteobridge,2013-12-01 14:08:00,
2013-12-01 08:09:00,50.2,49.3,30.26,SSE,163,0.0,0.0,97,0.00,,,0.01,42.0,meteobridge,2013-12-01 14:09:00,
2013-12-01 08:10:00,50.2,49.3,30.26,SSE,163,0.0,0.0,97,0.00,,,0.01,44.0,meteobridge,2013-12-01 14:10:00,
2013-12-01 08:11:00,50.2,49.3,30.26,SSE,163,0.0,0.0,97,0.00,,,0.01,46.0,meteobridge,2013-12-01 14:11:00,
2013-12-01 08:14:00,50.4,49.5,30.26,SSW,207,0.0,0.0,97,0.00,,,0.01,49.0,meteobridge,2013-12-01 14:14:00,
2013-12-01 08:16:00,50.4,49.5,30.26,SSW,207,0.0,0.0,97,0.00,,,0.01,51.0,meteobridge,2013-12-01 14:16:00,
2013-12-01 08:17:00,50.4,49.5,30.26,SSW,207,0.0,0.0,97,0.00,,,0.01,54.0,meteobridge,2013-12-01 14:17:00,
2013-12-01 08:21:00,50.5,49.6,30.26,SSW,207,0.0,0.0,97,0.00,,,0.01,60.0,meteobridge,2013-12-01 14:21:00,
2013-12-01 08:22:00,50.5,49.6,30.26,SSW,207,0.0,0.0,97,0.00,,,0.01,60.0,meteobridge,2013-12-01 14:22:00,
2013-12-01 08:24:00,50.7,49.8,30.25,SSW,207,0.0,0.0,97,0.00,,,0.01,60.0,meteobridge,2013-12-01 14:24:00,
2013-12-01 08:26:00,50.7,49.8,30.25,SSW,207,0.0,0.0,97,0.00,,,0.01,62.0,meteobridge,2013-12-01 14:26:00,
2013-12-01 08:27:00,50.7,49.8,30.25,SSW,207,0.0,0.0,97,0.00,,,0.01,62.0,meteobridge,2013-12-01 14:27:00,
2013-12-01 08:28:00,50.9,50.0,30.25,SSW,207,0.0,0.0,97,0.00,,,0.01,65.0,meteobridge,2013-12-01 14:28:00,
2013-12-01 08:29:00,50.9,50.0,30.25,SSW,207,0.0,0.0,97,0.00,,,0.01,65.0,meteobridge,2013-12-01 14:29:00,
2013-12-01 08:30:00,51.1,50.2,30.25,SSW,207,0.0,0.0,97,0.00,,,0.01,67.0,meteobridge,2013-12-01 14:30:00,
2013-12-01 08:32:00,51.1,50.2,30.25,SSW,207,0.0,0.0,97,0.00,,,0.01,70.0,meteobridge,2013-12-01 14:32:00,
2013-12-01 08:34:00,51.1,50.2,30.25,SSW,207,0.9,0.9,97,0.00,,,0.01,74.0,meteobridge,2013-12-01 14:34:00,
2013-12-01 08:36:00,51.3,50.4,30.25,SSW,207,0.0,0.0,97,0.00,,,0.01,79.0,meteobridge,2013-12-01 14:36:00,
2013-12-01 08:37:00,51.3,50.4,30.25,SSW,207,0.0,0.0,97,0.00,,,0.01,79.0,meteobridge,2013-12-01 14:37:00,
2013-12-01 08:40:00,51.4,50.5,30.25,SSW,207,0.0,0.0,97,0.00,,,0.01,81.0,meteobridge,2013-12-01 14:40:00,
2013-12-01 08:41:00,51.6,50.7,30.25,SSW,207,0.0,0.0,97,0.00,,,0.01,83.0,meteobridge,2013-12-01 14:41:00,
2013-12-01 08:42:00,51.6,50.7,30.25,SSW,206,2.0,2.0,97,0.00,,,0.01,84.0,meteobridge,2013-12-01 14:42:00,
2013-12-01 08:44:00,51.8,50.9,30.25,SSW,206,0.0,0.9,97,0.00,,,0.01,88.0,meteobridge,2013-12-01 14:44:00,
2013-12-01 08:46:00,52.0,51.1,30.25,SSW,206,0.0,0.0,97,0.00,,,0.01,93.0,meteobridge,2013-12-01 14:46:00,
2013-12-01 08:47:00,52.0,51.1,30.25,SSW,206,0.0,0.0,97,0.00,,,0.01,93.0,meteobridge,2013-12-01 14:47:00,
2013-12-01 08:48:00,52.0,51.1,30.25,South,185,0.0,0.0,97,0.00,,,0.01,90.0,meteobridge,2013-12-01 14:48:00,
2013-12-01 08:50:00,52.2,51.3,30.26,South,185,0.0,0.0,97,0.00,,,0.01,86.0,meteobridge,2013-12-01 14:50:00,
2013-12-01 08:52:00,52.2,51.3,30.26,South,185,0.0,0.0,97,0.00,,,0.01,84.0,meteobridge,2013-12-01 14:52:00,
2013-12-01 08:53:00,52.3,51.4,30.26,South,185,0.0,0.0,97,0.00,,,0.01,81.0,meteobridge,2013-12-01 14:53:00,
2013-12-01 08:55:00,52.3,51.4,30.26,South,185,0.0,0.0,97,0.00,,,0.01,77.0,meteobridge,2013-12-01 14:55:00,
2013-12-01 08:56:00,52.3,51.4,30.26,South,185,0.0,0.0,97,0.00,,,0.01,77.0,meteobridge,2013-12-01 14:56:00,
2013-12-01 08:57:00,52.3,51.4,30.27,South,185,0.0,0.0,97,0.00,,,0.01,70.0,meteobridge,2013-12-01 14:57:00,
2013-12-01 08:58:00,52.3,51.4,30.27,South,185,0.0,0.0,97,0.00,,,0.01,70.0,meteobridge,2013-12-01 14:58:00,
2013-12-01 08:59:00,52.3,51.4,30.27,South,185,0.0,0.0,97,0.00,,,0.01,72.0,meteobridge,2013-12-01 14:59:00,
2013-12-01 09:01:00,52.5,51.6,30.26,South,185,0.0,0.0,97,0.00,,,0.01,79.0,meteobridge,2013-12-01 15:01:00,
2013-12-01 09:02:00,52.5,51.6,30.26,South,185,0.0,0.0,97,0.00,,,0.01,79.0,meteobridge,2013-12-01 15:02:00,
2013-12-01 09:03:00,52.5,51.6,30.26,South,185,0.0,0.0,97,0.00,,,0.01,81.0,meteobridge,2013-12-01 15:03:00,
2013-12-01 09:04:00,52.5,51.6,30.26,South,185,0.0,0.0,97,0.00,,,0.01,88.0,meteobridge,2013-12-01 15:04:00,
2013-12-01 09:05:00,52.7,51.8,30.26,South,185,0.0,0.0,97,0.00,,,0.01,88.0,meteobridge,2013-12-01 15:05:00,
2013-12-01 09:07:00,52.9,52.0,30.26,South,185,0.0,0.0,97,0.00,,,0.01,93.0,meteobridge,2013-12-01 15:07:00,
2013-12-01 09:09:00,52.9,52.0,30.26,South,185,0.0,0.0,97,0.00,,,0.01,93.0,meteobridge,2013-12-01 15:09:00,
2013-12-01 09:11:00,53.1,52.5,30.27,South,185,0.0,0.0,98,0.00,,,0.01,91.0,meteobridge,2013-12-01 15:11:00,
2013-12-01 09:12:00,53.1,52.5,30.27,South,185,0.0,0.0,98,0.00,,,0.01,91.0,meteobridge,2013-12-01 15:12:00,
2013-12-01 09:13:00,53.1,52.2,30.27,South,185,0.0,0.0,97,0.00,,,0.01,91.0,meteobridge,2013-12-01 15:13:00,
2013-12-01 09:16:00,53.2,52.3,30.27,South,185,0.0,0.0,97,0.00,,,0.01,90.0,meteobridge,2013-12-01 15:16:00,
2013-12-01 09:17:00,53.2,52.7,30.27,South,185,0.0,0.0,98,0.00,,,0.01,90.0,meteobridge,2013-12-01 15:17:00,
2013-12-01 09:18:00,53.4,52.9,30.27,South,185,0.0,0.0,98,0.00,,,0.01,90.0,meteobridge,2013-12-01 15:18:00,
2013-12-01 09:21:00,53.6,53.1,30.27,WNW,293,0.0,0.9,98,0.00,,,0.01,97.0,meteobridge,2013-12-01 15:21:00,
2013-12-01 09:22:00,53.6,53.1,30.27,WNW,293,0.0,0.9,98,0.00,,,0.01,97.0,meteobridge,2013-12-01 15:22:00,
2013-12-01 09:23:00,53.6,53.1,30.27,WNW,293,0.0,0.0,98,0.00,,,0.01,98.0,meteobridge,2013-12-01 15:23:00,
2013-12-01 09:24:00,53.8,52.9,30.27,WNW,293,0.0,0.0,97,0.00,,,0.01,100.0,meteobridge,2013-12-01 15:24:00,
2013-12-01 09:26:00,54.0,53.1,30.26,WNW,293,0.0,0.9,97,0.00,,,0.01,105.0,meteobridge,2013-12-01 15:26:00,
2013-12-01 09:28:00,54.0,53.1,30.26,WNW,293,0.0,0.9,97,0.00,,,0.01,111.0,meteobridge,2013-12-01 15:28:00,
2013-12-01 09:29:00,54.0,53.4,30.26,WNW,293,0.0,0.0,98,0.00,,,0.01,111.0,meteobridge,2013-12-01 15:29:00,
2013-12-01 09:30:00,54.1,53.6,30.26,WNW,293,0.0,0.0,98,0.00,,,0.01,111.0,meteobridge,2013-12-01 15:30:00,
2013-12-01 09:33:00,54.1,53.6,30.26,SSW,211,0.0,0.0,98,0.00,,,0.01,109.0,meteobridge,2013-12-01 15:33:00,
2013-12-01 09:34:00,54.3,53.8,30.26,WNW,284,0.9,0.9,98,0.00,,,0.01,109.0,meteobridge,2013-12-01 15:34:00,
2013-12-01 09:35:00,54.3,53.4,30.26,WNW,284,0.0,0.9,97,0.00,,,0.01,116.0,meteobridge,2013-12-01 15:35:00,
2013-12-01 09:38:00,54.7,53.8,30.26,NNE,19,0.0,0.9,97,0.00,,,0.01,134.0,meteobridge,2013-12-01 15:38:00,
2013-12-01 09:40:00,54.7,53.8,30.26,NNE,18,0.0,0.0,97,0.00,,,0.01,135.0,meteobridge,2013-12-01 15:40:00,
2013-12-01 09:41:00,54.7,54.1,30.26,NNE,18,0.0,0.0,98,0.00,,,0.01,135.0,meteobridge,2013-12-01 15:41:00,
2013-12-01 09:43:00,54.9,54.3,30.26,SSE,157,0.0,2.9,98,0.00,,,0.01,128.0,meteobridge,2013-12-01 15:43:00,
2013-12-01 09:45:00,54.9,54.3,30.26,SSE,157,0.0,0.9,98,0.00,,,0.01,127.0,meteobridge,2013-12-01 15:45:00,
2013-12-01 09:46:00,55.0,54.1,30.26,SSE,157,0.0,0.9,97,0.00,,,0.01,127.0,meteobridge,2013-12-01 15:46:00,
2013-12-01 09:50:00,55.0,54.1,30.26,South,184,0.0,0.0,97,0.00,,,0.01,144.0,meteobridge,2013-12-01 15:50:00,
2013-12-01 09:51:00,55.0,54.1,30.26,West,259,0.0,0.0,97,0.00,,,0.01,144.0,meteobridge,2013-12-01 15:51:00,
2013-12-01 09:52:00,55.2,54.7,30.26,West,259,0.0,0.9,98,0.00,,,0.01,142.0,meteobridge,2013-12-01 15:52:00,
2013-12-01 09:56:00,55.2,54.3,30.27,SSW,194,0.0,0.0,97,0.00,,,0.01,139.0,meteobridge,2013-12-01 15:56:00,
2013-12-01 09:57:00,55.4,54.5,30.27,SSW,194,0.0,0.0,97,0.00,,,0.01,137.0,meteobridge,2013-12-01 15:57:00,
2013-12-01 09:58:00,55.4,54.5,30.27,SSW,194,0.0,0.0,97,0.00,,,0.01,137.0,meteobridge,2013-12-01 15:58:00,
2013-12-01 10:01:00,55.6,54.7,30.26,SSW,194,0.0,0.9,97,0.00,,,0.01,125.0,meteobridge,2013-12-01 16:01:00,
2013-12-01 10:02:00,55.8,54.9,30.26,SE,136,2.0,2.0,97,0.00,,,0.01,125.0,meteobridge,2013-12-01 16:02:00,
2013-12-01 10:03:00,55.8,54.9,30.26,SE,136,0.9,2.9,97,0.00,,,0.01,125.0,meteobridge,2013-12-01 16:03:00,
2013-12-01 10:04:00,55.8,54.9,30.26,SE,136,0.0,2.9,97,0.00,,,0.01,130.0,meteobridge,2013-12-01 16:04:00,
2013-12-01 10:05:00,55.8,54.9,30.25,SE,136,0.0,0.9,97,0.00,,,0.01,139.0,meteobridge,2013-12-01 16:05:00,
2013-12-01 10:07:00,55.9,55.0,30.25,SE,136,0.0,0.0,97,0.00,,,0.01,146.0,meteobridge,2013-12-01 16:07:00,
2013-12-01 10:08:00,55.9,55.0,30.25,SE,136,0.0,0.0,97,0.00,,,0.01,153.0,meteobridge,2013-12-01 16:08:00,
2013-12-01 10:09:00,55.9,55.0,30.25,SE,136,0.0,0.9,97,0.00,,,0.01,155.0,meteobridge,2013-12-01 16:09:00,
2013-12-01 10:10:00,56.1,55.2,30.25,SE,136,0.0,0.9,97,0.00,,,0.01,162.0,meteobridge,2013-12-01 16:10:00,
2013-12-01 10:11:00,56.1,55.2,30.25,SE,136,0.0,0.9,97,0.00,,,0.01,165.0,meteobridge,2013-12-01 16:11:00,
2013-12-01 10:12:00,56.1,55.2,30.25,SE,136,0.0,0.9,97,0.00,,,0.01,165.0,meteobridge,2013-12-01 16:12:00,
2013-12-01 10:13:00,56.3,55.4,30.24,SE,143,2.0,2.9,97,0.00,,,0.01,167.0,meteobridge,2013-12-01 16:13:00,
2013-12-01 10:14:00,56.5,55.6,30.24,SE,143,0.0,2.9,97,0.00,,,0.01,172.0,meteobridge,2013-12-01 16:14:00,
2013-12-01 10:16:00,56.7,55.8,30.24,SE,143,0.0,0.0,97,0.00,,,0.01,179.0,meteobridge,2013-12-01 16:16:00,
2013-12-01 10:17:00,56.8,55.9,30.24,SE,143,0.0,0.9,97,0.00,,,0.01,179.0,meteobridge,2013-12-01 16:17:00,
2013-12-01 10:18:00,57.2,56.3,30.24,SE,143,0.0,0.9,97,0.00,,,0.01,178.0,meteobridge,2013-12-01 16:18:00,
2013-12-01 10:19:00,57.6,56.7,30.24,SE,144,0.0,0.0,97,0.00,,,0.01,176.0,meteobridge,2013-12-01 16:19:00,
2013-12-01 10:21:00,57.9,57.0,30.24,SE,144,0.0,2.0,97,0.00,,,0.01,169.0,meteobridge,2013-12-01 16:21:00,
2013-12-01 10:22:00,57.9,57.0,30.24,SE,144,0.0,0.9,97,0.00,,,0.01,163.0,meteobridge,2013-12-01 16:22:00,
2013-12-01 10:23:00,58.1,57.2,30.24,SE,144,0.9,0.9,97,0.00,,,0.01,163.0,meteobridge,2013-12-01 16:23:00,
2013-12-01 10:27:00,58.5,57.4,30.25,SE,145,0.0,0.0,96,0.00,,,0.01,149.0,meteobridge,2013-12-01 16:27:00,
2013-12-01 10:28:00,58.6,57.6,30.25,SE,145,0.9,0.9,96,0.00,,,0.01,146.0,meteobridge,2013-12-01 16:28:00,
2013-12-01 10:29:00,58.6,57.2,30.25,SE,145,0.0,0.9,95,0.00,,,0.01,146.0,meteobridge,2013-12-01 16:29:00,
2013-12-01 10:31:00,59.0,57.6,30.25,SE,145,0.9,0.9,95,0.00,,,0.01,155.0,meteobridge,2013-12-01 16:31:00,
2013-12-01 10:32:00,59.2,57.7,30.24,SSE,153,0.0,2.9,95,0.00,,,0.01,160.0,meteobridge,2013-12-01 16:32:00,
2013-12-01 10:33:00,59.2,57.4,30.24,SSE,154,0.0,2.9,94,0.00,,,0.01,165.0,meteobridge,2013-12-01 16:33:00,
2013-12-01 10:35:00,59.4,57.6,30.24,SE,144,0.9,2.9,94,0.00,,,0.01,165.0,meteobridge,2013-12-01 16:35:00,
2013-12-01 10:36:00,59.4,57.4,30.24,South,186,2.0,2.9,93,0.00,,,0.01,165.0,meteobridge,2013-12-01 16:36:00,
2013-12-01 10:37:00,59.5,57.6,30.24,South,180,0.0,2.9,93,0.00,,,0.01,169.0,meteobridge,2013-12-01 16:37:00,
2013-12-01 10:38:00,59.5,57.6,30.24,SSE,162,2.0,2.9,93,0.00,,,0.01,172.0,meteobridge,2013-12-01 16:38:00,
2013-12-01 10:41:00,59.5,56.8,30.24,SSE,151,0.0,4.0,91,0.00,,,0.01,186.0,meteobridge,2013-12-01 16:41:00,
2013-12-01 10:42:00,59.5,56.8,30.24,SSE,151,0.0,4.0,91,0.00,,,0.01,186.0,meteobridge,2013-12-01 16:42:00,
2013-12-01 10:43:00,59.7,57.0,30.24,SSE,150,2.9,2.9,91,0.00,,,0.01,195.0,meteobridge,2013-12-01 16:43:00,
2013-12-01 10:44:00,59.9,57.2,30.24,SSE,163,0.0,4.0,91,0.00,,,0.01,195.0,meteobridge,2013-12-01 16:44:00,
2013-12-01 10:46:00,60.1,57.2,30.24,SSE,163,0.0,0.9,90,0.00,,,0.01,186.0,meteobridge,2013-12-01 16:46:00,
2013-12-01 10:47:00,60.1,56.8,30.24,SE,139,2.0,2.9,89,0.00,,,0.01,179.0,meteobridge,2013-12-01 16:47:00,
2013-12-01 10:48:00,60.3,57.0,30.24,SE,139,2.9,2.9,89,0.00,,,0.01,179.0,meteobridge,2013-12-01 16:48:00,
2013-12-01 10:50:00,60.3,57.0,30.24,SE,129,4.0,4.0,89,0.00,,,0.01,185.0,meteobridge,2013-12-01 16:50:00,
2013-12-01 10:52:00,60.3,57.0,30.24,South,169,2.9,4.0,89,0.00,,,0.01,193.0,meteobridge,2013-12-01 16:52:00,
2013-12-01 10:53:00,60.4,56.8,30.24,East,98,0.0,2.9,88,0.00,,,0.01,195.0,meteobridge,2013-12-01 16:53:00,
2013-12-01 10:55:00,60.6,57.0,30.24,East,98,0.0,0.0,88,0.00,,,0.01,190.0,meteobridge,2013-12-01 16:55:00,
2013-12-01 10:56:00,60.8,57.2,30.24,SSE,157,0.0,0.0,88,0.00,,,0.01,174.0,meteobridge,2013-12-01 16:56:00,
2013-12-01 10:57:00,60.8,57.2,30.24,SSE,157,0.0,0.0,88,0.00,,,0.01,174.0,meteobridge,2013-12-01 16:57:00,
2013-12-01 10:59:00,61.2,57.6,30.24,SSE,157,0.0,0.0,88,0.00,,,0.01,174.0,meteobridge,2013-12-01 16:59:00,
2013-12-01 11:00:00,61.3,57.4,30.24,SSE,157,0.0,0.0,87,0.00,,,0.01,176.0,meteobridge,2013-12-01 17:00:00,
2013-12-01 11:01:00,61.5,57.4,30.24,SSE,157,0.0,0.0,86,0.00,,,0.01,176.0,meteobridge,2013-12-01 17:01:00,
2013-12-01 11:02:00,61.5,57.4,30.24,South,179,2.9,2.9,86,0.00,,,0.01,183.0,meteobridge,2013-12-01 17:02:00,
2013-12-01 11:03:00,61.5,57.0,30.23,South,179,0.0,2.9,85,0.00,,,0.01,192.0,meteobridge,2013-12-01 17:03:00,
2013-12-01 11:05:00,61.5,57.4,30.23,South,179,0.0,0.0,86,0.00,,,0.01,193.0,meteobridge,2013-12-01 17:05:00,
2013-12-01 11:06:00,61.5,57.4,30.23,South,179,0.0,0.9,86,0.00,,,0.01,193.0,meteobridge,2013-12-01 17:06:00,
2013-12-01 11:07:00,61.7,57.4,30.23,South,179,0.9,0.9,86,0.00,,,0.01,190.0,meteobridge,2013-12-01 17:07:00,
2013-12-01 11:08:00,61.7,57.2,30.23,SSE,158,0.0,2.9,85,0.00,,,0.01,188.0,meteobridge,2013-12-01 17:08:00,
2013-12-01 11:09:00,61.7,57.2,30.23,SE,130,0.9,2.9,85,0.00,,,0.01,183.0,meteobridge,2013-12-01 17:09:00,
2013-12-01 11:11:00,61.9,57.6,30.23,ESE,115,0.0,2.9,86,0.00,,,0.01,181.0,meteobridge,2013-12-01 17:11:00,
2013-12-01 11:12:00,61.9,57.4,30.23,ESE,115,0.9,0.9,85,0.00,,,0.01,181.0,meteobridge,2013-12-01 17:12:00,
2013-12-01 11:13:00,61.9,57.4,30.23,ESE,115,0.0,2.0,85,0.00,,,0.01,185.0,meteobridge,2013-12-01 17:13:00,
2013-12-01 11:16:00,62.1,57.6,30.22,ESE,118,0.0,0.9,85,0.00,,,0.01,188.0,meteobridge,2013-12-01 17:16:00,
2013-12-01 11:17:00,62.1,57.6,30.23,SSE,165,0.9,2.0,85,0.00,,,0.01,188.0,meteobridge,2013-12-01 17:17:00,
2013-12-01 11:18:00,62.2,57.7,30.23,SSE,165,0.0,2.0,85,0.00,,,0.01,188.0,meteobridge,2013-12-01 17:18:00,
2013-12-01 11:19:00,62.2,57.4,30.22,SSE,165,0.0,2.9,84,0.00,,,0.01,190.0,meteobridge,2013-12-01 17:19:00,
2013-12-01 11:22:00,62.2,57.7,30.23,SE,134,0.0,0.9,85,0.00,,,0.01,199.0,meteobridge,2013-12-01 17:22:00,
2013-12-01 11:23:00,62.2,57.7,30.23,SE,134,0.0,0.9,85,0.00,,,0.01,199.0,meteobridge,2013-12-01 17:23:00,
2013-12-01 11:24:00,62.2,57.7,30.22,SE,134,0.0,0.0,85,0.00,,,0.01,199.0,meteobridge,2013-12-01 17:24:00,
2013-12-01 11:27:00,62.4,57.6,30.23,SE,134,0.0,2.0,84,0.00,,,0.01,192.0,meteobridge,2013-12-01 17:27:00,
2013-12-01 11:28:00,62.4,57.6,30.22,SE,134,0.0,2.0,84,0.00,,,0.01,190.0,meteobridge,2013-12-01 17:28:00,
2013-12-01 11:29:00,62.4,57.6,30.23,SE,134,0.0,0.9,84,0.00,,,0.01,190.0,meteobridge,2013-12-01 17:29:00,
2013-12-01 11:30:00,62.4,57.6,30.23,SE,134,0.0,0.9,84,0.00,,,0.01,185.0,meteobridge,2013-12-01 17:30:00,
2013-12-01 11:31:00,62.4,57.6,30.22,SE,134,0.0,0.9,84,0.00,,,0.01,179.0,meteobridge,2013-12-01 17:31:00,
2013-12-01 11:32:00,62.4,57.6,30.22,SE,134,0.0,0.9,84,0.00,,,0.01,178.0,meteobridge,2013-12-01 17:32:00,
2013-12-01 11:34:00,62.8,57.9,30.22,SE,134,0.0,0.9,84,0.00,,,0.01,185.0,meteobridge,2013-12-01 17:34:00,
2013-12-01 11:35:00,62.8,57.9,30.22,SE,134,0.9,2.0,84,0.00,,,0.01,185.0,meteobridge,2013-12-01 17:35:00,
2013-12-01 11:37:00,62.8,57.9,30.22,South,170,0.0,0.9,84,0.00,,,0.01,206.0,meteobridge,2013-12-01 17:37:00,
2013-12-01 11:38:00,63.0,58.1,30.22,South,170,0.9,0.9,84,0.00,,,0.01,206.0,meteobridge,2013-12-01 17:38:00,
2013-12-01 11:39:00,63.0,58.1,30.22,SSE,160,2.9,4.9,84,0.00,,,0.01,216.0,meteobridge,2013-12-01 17:39:00,
2013-12-01 11:40:00,63.0,58.1,30.22,SE,125,2.9,4.9,84,0.00,,,0.01,216.0,meteobridge,2013-12-01 17:40:00,
2013-12-01 11:42:00,63.0,58.1,30.22,South,171,0.9,2.9,84,0.00,,,0.01,211.0,meteobridge,2013-12-01 17:42:00,
2013-12-01 11:44:00,63.1,58.3,30.22,SSE,163,2.0,2.9,84,0.00,,,0.01,207.0,meteobridge,2013-12-01 17:44:00,
2013-12-01 11:45:00,63.1,58.3,30.21,SSE,147,2.0,4.0,84,0.00,,,0.01,206.0,meteobridge,2013-12-01 17:45:00,
2013-12-01 11:46:00,63.1,58.3,30.21,South,182,4.0,4.9,84,0.00,,,0.01,206.0,meteobridge,2013-12-01 17:46:00,
2013-12-01 11:47:00,63.1,57.9,30.21,SSE,167,0.9,4.9,83,0.00,,,0.01,206.0,meteobridge,2013-12-01 17:47:00,
2013-12-01 11:49:00,63.1,57.9,30.21,SSE,153,0.9,4.0,83,0.00,,,0.01,199.0,meteobridge,2013-12-01 17:49:00,
2013-12-01 11:51:00,63.1,57.9,30.21,SSE,153,0.0,2.0,83,0.00,,,0.01,186.0,meteobridge,2013-12-01 17:51:00,
2013-12-01 11:52:00,63.1,57.9,30.21,SSE,153,0.0,2.0,83,0.00,,,0.01,181.0,meteobridge,2013-12-01 17:52:00,
2013-12-01 11:53:00,63.3,58.5,30.21,SSE,153,0.0,0.0,84,0.00,,,0.01,171.0,meteobridge,2013-12-01 17:53:00,
2013-12-01 11:56:00,63.5,58.6,30.21,SSE,154,4.9,4.9,84,0.00,,,0.01,169.0,meteobridge,2013-12-01 17:56:00,
2013-12-01 11:57:00,63.7,58.5,30.21,SSE,150,0.0,4.9,83,0.00,,,0.01,171.0,meteobridge,2013-12-01 17:57:00,
2013-12-01 11:58:00,63.7,58.8,30.21,SSE,150,2.0,4.9,84,0.00,,,0.01,174.0,meteobridge,2013-12-01 17:58:00,
2013-12-01 12:00:00,63.7,58.5,30.20,SSE,159,0.0,2.9,83,0.00,,,0.01,181.0,meteobridge,2013-12-01 18:00:00,
2013-12-01 12:01:00,63.7,58.5,30.20,SSE,159,0.0,2.0,83,0.00,,,0.01,183.0,meteobridge,2013-12-01 18:01:00,
2013-12-01 12:02:00,63.7,58.5,30.20,SSE,159,0.0,2.0,83,0.00,,,0.01,183.0,meteobridge,2013-12-01 18:02:00,
2013-12-01 12:03:00,63.7,58.5,30.20,SSE,159,0.0,2.0,83,0.00,,,0.01,185.0,meteobridge,2013-12-01 18:03:00,
2013-12-01 12:05:00,63.9,58.6,30.20,SSE,159,0.0,0.9,83,0.00,,,0.01,179.0,meteobridge,2013-12-01 18:05:00,
2013-12-01 12:06:00,63.9,58.6,30.20,SSE,159,0.0,2.0,83,0.00,,,0.01,172.0,meteobridge,2013-12-01 18:06:00,
2013-12-01 12:07:00,63.9,58.3,30.20,SSE,159,0.0,2.0,82,0.00,,,0.01,172.0,meteobridge,2013-12-01 18:07:00,
2013-12-01 12:08:00,63.9,58.3,30.20,SSE,159,0.0,2.0,82,0.00,,,0.01,167.0,meteobridge,2013-12-01 18:08:00,
2013-12-01 12:09:00,63.9,58.6,30.20,SSE,159,0.0,0.0,83,0.00,,,0.01,167.0,meteobridge,2013-12-01 18:09:00,
2013-12-01 12:10:00,63.9,58.6,30.20,SSE,159,0.9,0.9,83,0.00,,,0.01,155.0,meteobridge,2013-12-01 18:10:00,
2013-12-01 12:12:00,63.9,58.6,30.20,SSE,159,0.0,0.9,83,0.00,,,0.01,148.0,meteobridge,2013-12-01 18:12:00,
2013-12-01 12:13:00,63.9,58.6,30.20,SSE,159,0.0,0.9,83,0.00,,,0.01,151.0,meteobridge,2013-12-01 18:13:00,
2013-12-01 12:14:00,63.9,58.6,30.20,SSE,159,0.0,0.0,83,0.00,,,0.01,162.0,meteobridge,2013-12-01 18:14:00,
2013-12-01 12:17:00,63.9,58.6,30.20,SSE,159,0.0,2.0,83,0.00,,,0.01,165.0,meteobridge,2013-12-01 18:17:00,
2013-12-01 12:18:00,63.9,58.6,30.20,SSE,159,0.0,2.0,83,0.00,,,0.01,171.0,meteobridge,2013-12-01 18:18:00,
2013-12-01 12:19:00,63.9,58.6,30.20,SSE,159,0.0,0.9,83,0.00,,,0.01,179.0,meteobridge,2013-12-01 18:19:00,
2013-12-01 12:20:00,63.9,58.6,30.20,SSE,159,0.0,0.9,83,0.00,,,0.01,179.0,meteobridge,2013-12-01 18:20:00,
2013-12-01 12:23:00,64.0,59.2,30.19,SSE,159,0.0,0.0,84,0.00,,,0.01,190.0,meteobridge,2013-12-01 18:23:00,
2013-12-01 12:24:00,64.0,59.2,30.19,SSE,159,0.0,0.0,84,0.00,,,0.01,190.0,meteobridge,2013-12-01 18:24:00,
2013-12-01 12:25:00,64.0,58.8,30.19,SE,146,2.0,2.0,83,0.00,,,0.01,188.0,meteobridge,2013-12-01 18:25:00,
2013-12-01 12:27:00,64.2,59.0,30.19,SE,140,0.0,2.0,83,0.00,,,0.01,181.0,meteobridge,2013-12-01 18:27:00,
2013-12-01 12:29:00,64.2,59.0,30.19,SE,140,0.9,0.9,83,0.00,,,0.01,176.0,meteobridge,2013-12-01 18:29:00,
2013-12-01 12:30:00,64.2,59.0,30.19,SE,140,0.0,0.9,83,0.00,,,0.01,176.0,meteobridge,2013-12-01 18:30:00,
2013-12-01 12:31:00,64.2,59.0,30.19,SE,140,0.9,0.9,83,0.00,,,0.01,181.0,meteobridge,2013-12-01 18:31:00,
2013-12-01 12:32:00,64.4,59.2,30.19,SE,140,0.0,2.0,83,0.00,,,0.01,179.0,meteobridge,2013-12-01 18:32:00,
2013-12-01 12:33:00,64.6,59.4,30.18,SE,140,0.0,0.0,83,0.00,,,0.01,179.0,meteobridge,2013-12-01 18:33:00,
2013-12-01 12:34:00,64.6,59.7,30.18,SE,140,0.0,0.0,84,0.00,,,0.01,178.0,meteobridge,2013-12-01 18:34:00,
2013-12-01 12:35:00,64.6,59.7,30.18,SE,140,0.0,0.0,84,0.00,,,0.01,178.0,meteobridge,2013-12-01 18:35:00,
2013-12-01 12:36:00,64.8,59.5,30.18,SE,140,0.0,0.0,83,0.00,,,0.01,183.0,meteobridge,2013-12-01 18:36:00,
2013-12-01 12:39:00,64.9,59.9,30.18,SE,140,0.0,0.0,84,0.00,,,0.01,171.0,meteobridge,2013-12-01 18:39:00,
2013-12-01 12:40:00,64.9,59.7,30.18,SE,140,0.0,0.0,83,0.00,,,0.01,174.0,meteobridge,2013-12-01 18:40:00,
2013-12-01 12:41:00,65.1,59.9,30.18,SE,140,0.0,0.0,83,0.00,,,0.01,172.0,meteobridge,2013-12-01 18:41:00,
2013-12-01 12:45:00,65.1,59.5,30.17,SSW,194,0.0,2.9,82,0.00,,,0.01,197.0,meteobridge,2013-12-01 18:45:00,
2013-12-01 12:46:00,64.9,59.4,30.17,SSE,163,0.0,4.0,82,0.00,,,0.01,195.0,meteobridge,2013-12-01 18:46:00,
2013-12-01 12:49:00,65.1,59.9,30.17,SSE,163,0.9,0.9,83,0.00,,,0.01,195.0,meteobridge,2013-12-01 18:49:00,
2013-12-01 12:50:00,65.1,59.9,30.17,SE,125,0.0,2.9,83,0.00,,,0.01,202.0,meteobridge,2013-12-01 18:50:00,
2013-12-01 12:51:00,65.1,59.5,30.17,SSE,155,2.9,2.9,82,0.00,,,0.01,216.0,meteobridge,2013-12-01 18:51:00,
2013-12-01 12:52:00,65.1,59.5,30.17,SSE,153,0.0,2.9,82,0.00,,,0.01,216.0,meteobridge,2013-12-01 18:52:00,
2013-12-01 12:55:00,65.1,59.5,30.17,SSE,164,0.0,0.9,82,0.00,,,0.01,221.0,meteobridge,2013-12-01 18:55:00,
2013-12-01 12:56:00,65.3,59.7,30.17,SSE,164,0.0,0.0,82,0.00,,,0.01,223.0,meteobridge,2013-12-01 18:56:00,
2013-12-01 12:57:00,65.1,59.5,30.17,SSE,164,0.0,0.0,82,0.00,,,0.01,223.0,meteobridge,2013-12-01 18:57:00,
2013-12-01 12:58:00,65.3,59.7,30.17,SSE,164,0.0,0.9,82,0.00,,,0.01,193.0,meteobridge,2013-12-01 18:58:00,
2013-12-01 13:01:00,65.5,59.5,30.16,SSE,163,0.0,0.9,81,0.00,,,0.01,179.0,meteobridge,2013-12-01 19:01:00,
2013-12-01 13:02:00,65.5,59.5,30.16,SSE,163,0.0,0.9,81,0.00,,,0.01,179.0,meteobridge,2013-12-01 19:02:00,
2013-12-01 13:03:00,65.5,59.9,30.17,SSE,163,0.0,0.9,82,0.00,,,0.01,185.0,meteobridge,2013-12-01 19:03:00,
2013-12-01 13:04:00,65.7,60.1,30.16,ESE,109,2.0,2.9,82,0.00,,,0.01,181.0,meteobridge,2013-12-01 19:04:00,
2013-12-01 13:07:00,65.8,60.3,30.16,ESE,109,0.9,0.9,82,0.00,,,0.01,176.0,meteobridge,2013-12-01 19:07:00,
2013-12-01 13:08:00,65.8,59.9,30.16,ESE,109,0.0,0.9,81,0.00,,,0.01,176.0,meteobridge,2013-12-01 19:08:00,
2013-12-01 13:10:00,65.8,59.9,30.16,ESE,109,0.0,0.0,81,0.00,,,0.01,192.0,meteobridge,2013-12-01 19:10:00,
2013-12-01 13:11:00,65.8,60.3,30.16,ESE,109,0.0,0.0,82,0.00,,,0.01,192.0,meteobridge,2013-12-01 19:11:00,
2013-12-01 13:12:00,65.8,59.9,30.16,ESE,109,0.9,0.9,81,0.00,,,0.01,188.0,meteobridge,2013-12-01 19:12:00,
2013-12-01 13:14:00,65.8,59.9,30.16,ESE,109,0.0,0.9,81,0.00,,,0.01,192.0,meteobridge,2013-12-01 19:14:00,
2013-12-01 13:15:00,65.8,59.9,30.16,ESE,109,0.0,0.9,81,0.00,,,0.01,199.0,meteobridge,2013-12-01 19:15:00,
2013-12-01 13:16:00,65.8,59.9,30.16,ESE,109,0.0,0.9,81,0.00,,,0.01,213.0,meteobridge,2013-12-01 19:16:00,
2013-12-01 13:17:00,65.8,59.9,30.15,ESE,109,0.0,0.9,81,0.00,,,0.01,213.0,meteobridge,2013-12-01 19:17:00,
2013-12-01 13:18:00,65.8,59.9,30.15,ESE,109,0.0,0.0,81,0.00,,,0.01,229.0,meteobridge,2013-12-01 19:18:00,
2013-12-01 13:19:00,65.8,60.3,30.15,ESE,109,0.0,0.9,82,0.00,,,0.01,243.0,meteobridge,2013-12-01 19:19:00,
2013-12-01 13:20:00,65.8,60.3,30.15,SSE,162,2.0,2.9,82,0.00,,,0.01,251.0,meteobridge,2013-12-01 19:20:00,
2013-12-01 13:21:00,66.0,60.1,30.15,SE,134,0.0,4.0,81,0.00,,,0.01,250.0,meteobridge,2013-12-01 19:21:00,
2013-12-01 13:22:00,66.0,60.1,30.15,SE,134,0.0,4.0,81,0.00,,,0.01,248.0,meteobridge,2013-12-01 19:22:00,
2013-12-01 13:23:00,66.0,60.1,30.15,SSE,159,2.0,2.9,81,0.00,,,0.01,250.0,meteobridge,2013-12-01 19:23:00,
2013-12-01 13:25:00,66.2,59.9,30.14,SSE,151,2.0,4.0,80,0.00,,,0.01,241.0,meteobridge,2013-12-01 19:25:00,
2013-12-01 13:26:00,66.2,60.3,30.14,ESE,121,0.0,4.0,81,0.00,,,0.01,262.0,meteobridge,2013-12-01 19:26:00,
2013-12-01 13:27:00,66.4,60.4,30.14,ESE,121,0.0,0.9,81,0.00,,,0.01,253.0,meteobridge,2013-12-01 19:27:00,
2013-12-01 13:29:00,66.6,60.6,30.14,ESE,121,0.0,0.9,81,0.00,,,0.01,264.0,meteobridge,2013-12-01 19:29:00,
2013-12-01 13:30:00,66.6,60.6,30.14,SSE,161,2.0,2.0,81,0.00,,,0.01,258.0,meteobridge,2013-12-01 19:30:00,
2013-12-01 13:31:00,66.6,60.6,30.14,SSE,159,2.9,2.9,81,0.00,,,0.01,258.0,meteobridge,2013-12-01 19:31:00,
2013-12-01 13:33:00,66.7,60.4,30.14,South,190,0.0,4.9,80,0.00,,,0.01,237.0,meteobridge,2013-12-01 19:33:00,
2013-12-01 13:35:00,66.7,60.4,30.14,South,190,0.0,2.0,80,0.00,,,0.01,250.0,meteobridge,2013-12-01 19:35:00,
2013-12-01 13:36:00,66.7,60.4,30.14,South,190,0.0,2.0,80,0.00,,,0.01,250.0,meteobridge,2013-12-01 19:36:00,
2013-12-01 13:37:00,66.7,60.8,30.14,SSE,152,2.9,4.9,81,0.00,,,0.01,255.0,meteobridge,2013-12-01 19:37:00,
2013-12-01 13:38:00,66.7,60.4,30.14,SSE,148,0.0,4.9,80,0.00,,,0.01,271.0,meteobridge,2013-12-01 19:38:00,
2013-12-01 13:40:00,66.9,60.6,30.14,SSE,148,0.0,0.9,80,0.00,,,0.01,271.0,meteobridge,2013-12-01 19:40:00,
2013-12-01 13:41:00,66.9,60.6,30.14,SSE,148,0.0,2.0,80,0.00,,,0.01,276.0,meteobridge,2013-12-01 19:41:00,
2013-12-01 13:42:00,66.9,60.6,30.14,ESE,105,0.0,2.0,80,0.00,,,0.01,276.0,meteobridge,2013-12-01 19:42:00,
2013-12-01 13:43:00,67.1,61.2,30.13,SE,137,0.9,4.9,81,0.00,,,0.01,287.0,meteobridge,2013-12-01 19:43:00,
2013-12-01 13:45:00,67.5,61.2,30.13,SE,138,0.0,0.9,80,0.00,,,0.01,257.0,meteobridge,2013-12-01 19:45:00,
2013-12-01 13:46:00,67.5,61.2,30.13,SE,134,0.9,2.9,80,0.00,,,0.01,230.0,meteobridge,2013-12-01 19:46:00,
2013-12-01 13:47:00,67.5,60.8,30.13,SE,134,0.9,2.9,79,0.00,,,0.01,214.0,meteobridge,2013-12-01 19:47:00,
2013-12-01 13:48:00,67.6,60.6,30.13,SE,134,0.0,2.0,78,0.00,,,0.01,213.0,meteobridge,2013-12-01 19:48:00,
2013-12-01 13:51:00,67.6,61.0,30.13,SE,134,0.9,2.0,79,0.00,,,0.01,248.0,meteobridge,2013-12-01 19:51:00,
2013-12-01 13:52:00,67.6,61.0,30.13,SE,134,0.0,0.9,79,0.00,,,0.01,246.0,meteobridge,2013-12-01 19:52:00,
2013-12-01 13:53:00,67.6,60.6,30.13,SE,134,0.0,0.9,78,0.00,,,0.01,243.0,meteobridge,2013-12-01 19:53:00,
2013-12-01 13:54:00,67.6,60.6,30.13,SSE,148,2.0,4.0,78,0.00,,,0.01,227.0,meteobridge,2013-12-01 19:54:00,
2013-12-01 13:55:00,67.6,60.6,30.13,ESE,108,2.9,6.0,78,0.00,,,0.01,206.0,meteobridge,2013-12-01 19:55:00,
2013-12-01 13:57:00,67.5,60.1,30.13,SSE,148,0.0,4.9,77,0.00,,,0.01,213.0,meteobridge,2013-12-01 19:57:00,
2013-12-01 13:58:00,67.5,60.1,30.13,South,178,0.9,4.0,77,0.00,,,0.01,204.0,meteobridge,2013-12-01 19:58:00,
2013-12-01 13:59:00,67.5,60.4,30.13,South,178,0.0,2.9,78,0.00,,,0.01,199.0,meteobridge,2013-12-01 19:59:00,
2013-12-01 14:01:00,67.5,60.4,30.13,SSE,157,0.0,0.9,78,0.00,,,0.01,199.0,meteobridge,2013-12-01 20:01:00,
2013-12-01 14:02:00,67.6,61.0,30.13,SSE,157,0.0,0.9,79,0.00,,,0.01,163.0,meteobridge,2013-12-01 20:02:00,
2013-12-01 14:03:00,67.6,60.6,30.13,SE,138,0.0,4.0,78,0.00,,,0.01,162.0,meteobridge,2013-12-01 20:03:00,
2013-12-01 14:04:00,67.5,60.4,30.13,SE,138,0.0,4.0,78,0.00,,,0.01,162.0,meteobridge,2013-12-01 20:04:00,
2013-12-01 14:05:00,67.5,60.4,30.13,SSE,155,2.0,2.9,78,0.00,,,0.01,169.0,meteobridge,2013-12-01 20:05:00,
2013-12-01 14:06:00,67.5,60.4,30.12,South,169,2.0,4.0,78,0.00,,,0.01,163.0,meteobridge,2013-12-01 20:06:00,
2013-12-01 14:08:00,67.5,60.4,30.12,East,99,0.0,4.0,78,0.00,,,0.01,162.0,meteobridge,2013-12-01 20:08:00,
2013-12-01 14:10:00,67.5,60.4,30.12,East,99,0.0,0.0,78,0.00,,,0.01,158.0,meteobridge,2013-12-01 20:10:00,
2013-12-01 14:11:00,67.3,60.6,30.12,East,100,0.0,0.9,79,0.00,,,0.01,149.0,meteobridge,2013-12-01 20:11:00,
2013-12-01 14:12:00,67.3,60.6,30.12,SE,142,0.9,2.0,79,0.00,,,0.01,149.0,meteobridge,2013-12-01 20:12:00,
2013-12-01 14:13:00,67.3,60.3,30.12,SSE,151,0.0,2.0,78,0.00,,,0.01,148.0,meteobridge,2013-12-01 20:13:00,
2013-12-01 14:14:00,67.3,60.3,30.12,South,178,0.9,0.9,78,0.00,,,0.01,151.0,meteobridge,2013-12-01 20:14:00,
2013-12-01 14:16:00,67.1,60.1,30.12,SE,134,4.0,4.9,78,0.00,,,0.01,156.0,meteobridge,2013-12-01 20:16:00,
2013-12-01 14:17:00,66.9,59.9,30.12,SSE,155,4.9,4.9,78,0.00,,,0.01,158.0,meteobridge,2013-12-01 20:17:00,
2013-12-01 14:18:00,66.9,59.9,30.12,SE,140,0.0,4.9,78,0.00,,,0.01,156.0,meteobridge,2013-12-01 20:18:00,
2013-12-01 14:20:00,66.9,59.9,30.12,South,177,2.9,2.9,78,0.00,,,0.01,156.0,meteobridge,2013-12-01 20:20:00,
2013-12-01 14:22:00,66.7,59.7,30.12,SSE,161,0.0,4.0,78,0.00,,,0.01,151.0,meteobridge,2013-12-01 20:22:00,
2013-12-01 14:23:00,66.7,59.7,30.12,SE,142,0.9,2.9,78,0.00,,,0.01,151.0,meteobridge,2013-12-01 20:23:00,
2013-12-01 14:25:00,66.7,59.7,30.12,SE,142,0.0,0.9,78,0.00,,,0.01,153.0,meteobridge,2013-12-01 20:25:00,
2013-12-01 14:28:00,66.7,60.1,30.12,SE,142,0.0,0.9,79,0.00,,,0.01,160.0,meteobridge,2013-12-01 20:28:00,
2013-12-01 14:29:00,66.7,60.1,30.12,SE,142,0.0,0.9,79,0.00,,,0.01,169.0,meteobridge,2013-12-01 20:29:00,
2013-12-01 14:30:00,66.7,60.1,30.12,SE,142,0.0,0.0,79,0.00,,,0.01,188.0,meteobridge,2013-12-01 20:30:00,
2013-12-01 14:31:00,66.7,60.1,30.12,SE,142,0.0,0.9,79,0.00,,,0.01,197.0,meteobridge,2013-12-01 20:31:00,
2013-12-01 14:33:00,66.7,60.4,30.11,SE,142,0.0,0.0,80,0.00,,,0.01,211.0,meteobridge,2013-12-01 20:33:00,
2013-12-01 14:34:00,66.7,60.4,30.11,SE,142,0.0,0.9,80,0.00,,,0.01,213.0,meteobridge,2013-12-01 20:34:00,
2013-12-01 14:35:00,66.7,60.1,30.11,SE,142,0.0,0.9,79,0.00,,,0.01,213.0,meteobridge,2013-12-01 20:35:00,
2013-12-01 14:36:00,66.7,60.1,30.11,South,171,0.9,2.9,79,0.00,,,0.01,213.0,meteobridge,2013-12-01 20:36:00,
2013-12-01 14:38:00,66.7,60.4,30.11,SSW,192,0.0,6.0,80,0.00,,,0.01,214.0,meteobridge,2013-12-01 20:38:00,
2013-12-01 14:39:00,66.7,60.4,30.11,SSW,192,0.9,6.0,80,0.00,,,0.01,216.0,meteobridge,2013-12-01 20:39:00,
2013-12-01 14:40:00,66.9,60.6,30.11,SSE,155,0.0,4.0,80,0.00,,,0.01,214.0,meteobridge,2013-12-01 20:40:00,
2013-12-01 14:42:00,66.9,60.6,30.11,SSE,155,0.0,0.9,80,0.00,,,0.01,213.0,meteobridge,2013-12-01 20:42:00,
2013-12-01 14:44:00,67.1,60.4,30.11,SSE,159,0.0,2.0,79,0.00,,,0.01,209.0,meteobridge,2013-12-01 20:44:00,
2013-12-01 14:45:00,67.1,60.4,30.11,SSE,159,0.9,2.0,79,0.00,,,0.01,209.0,meteobridge,2013-12-01 20:45:00,
2013-12-01 14:46:00,67.1,60.4,30.11,SSE,159,0.9,2.0,79,0.00,,,0.01,213.0,meteobridge,2013-12-01 20:46:00,
2013-12-01 14:47:00,67.1,60.4,30.11,ESE,123,2.9,4.0,79,0.00,,,0.01,216.0,meteobridge,2013-12-01 20:47:00,
2013-12-01 14:48:00,67.1,60.4,30.11,SE,142,2.0,4.9,79,0.00,,,0.01,220.0,meteobridge,2013-12-01 20:48:00,
2013-12-01 14:49:00,67.3,60.6,30.10,SE,146,0.0,2.9,79,0.00,,,0.01,230.0,meteobridge,2013-12-01 20:49:00,
2013-12-01 14:50:00,67.3,60.6,30.10,SE,146,0.0,0.9,79,0.00,,,0.01,230.0,meteobridge,2013-12-01 20:50:00,
2013-12-01 14:52:00,67.3,60.6,30.10,SE,146,0.9,0.9,79,0.00,,,0.01,230.0,meteobridge,2013-12-01 20:52:00,
2013-12-01 14:53:00,67.3,60.6,30.10,South,189,2.9,4.9,79,0.00,,,0.01,230.0,meteobridge,2013-12-01 20:53:00,
2013-12-01 14:54:00,67.3,60.3,30.10,SSW,194,4.0,6.0,78,0.00,,,0.01,223.0,meteobridge,2013-12-01 20:54:00,
2013-12-01 14:55:00,67.3,60.3,30.09,SSE,157,2.9,6.0,78,0.00,,,0.01,214.0,meteobridge,2013-12-01 20:55:00,
2013-12-01 14:57:00,67.3,60.3,30.09,SE,131,0.0,4.9,78,0.00,,,0.01,202.0,meteobridge,2013-12-01 20:57:00,
2013-12-01 14:58:00,67.3,60.6,30.09,SE,146,2.9,6.0,79,0.00,,,0.01,204.0,meteobridge,2013-12-01 20:58:00,
2013-12-01 14:59:00,67.3,60.3,30.09,ENE,62,2.0,6.0,78,0.00,,,0.01,214.0,meteobridge,2013-12-01 20:59:00,
2013-12-01 15:01:00,67.5,60.8,30.09,ENE,63,0.0,2.9,79,0.00,,,0.01,227.0,meteobridge,2013-12-01 21:01:00,
2013-12-01 15:03:00,67.6,61.0,30.09,SSE,153,4.9,4.9,79,0.00,,,0.01,294.0,meteobridge,2013-12-01 21:03:00,
2013-12-01 15:04:00,67.6,60.6,30.09,South,184,2.9,4.9,78,0.00,,,0.01,239.0,meteobridge,2013-12-01 21:04:00,
2013-12-01 15:06:00,67.6,60.6,30.09,West,266,0.0,4.0,78,0.00,,,0.01,186.0,meteobridge,2013-12-01 21:06:00,
2013-12-01 15:07:00,67.6,60.6,30.09,SE,134,0.9,2.0,78,0.00,,,0.01,167.0,meteobridge,2013-12-01 21:07:00,
2013-12-01 15:09:00,67.8,60.6,30.09,SSW,211,6.0,6.0,78,0.00,,,0.01,142.0,meteobridge,2013-12-01 21:09:00,
2013-12-01 15:11:00,67.6,60.3,30.09,SE,135,4.9,4.9,77,0.00,,,0.01,132.0,meteobridge,2013-12-01 21:11:00,
2013-12-01 15:12:00,67.6,60.3,30.09,SE,132,0.9,4.9,77,0.00,,,0.01,134.0,meteobridge,2013-12-01 21:12:00,
2013-12-01 15:13:00,67.6,60.3,30.09,SE,132,0.0,4.9,77,0.00,,,0.01,132.0,meteobridge,2013-12-01 21:13:00,
2013-12-01 15:14:00,67.6,60.6,30.10,SE,132,0.0,0.9,78,0.00,,,0.01,128.0,meteobridge,2013-12-01 21:14:00,
2013-12-01 15:15:00,67.6,60.6,30.10,SE,132,0.0,0.0,78,0.00,,,0.01,123.0,meteobridge,2013-12-01 21:15:00,
2013-12-01 15:18:00,67.5,60.4,30.10,SW,219,0.0,4.0,78,0.00,,,0.01,111.0,meteobridge,2013-12-01 21:18:00,
2013-12-01 15:19:00,67.5,60.4,30.10,SW,219,0.9,0.9,78,0.00,,,0.01,114.0,meteobridge,2013-12-01 21:19:00,
2013-12-01 15:20:00,67.3,60.6,30.10,SE,142,2.0,2.0,79,0.00,,,0.01,114.0,meteobridge,2013-12-01 21:20:00,
2013-12-01 15:21:00,67.3,60.6,30.10,SE,145,4.0,4.0,79,0.00,,,0.01,114.0,meteobridge,2013-12-01 21:21:00,
2013-12-01 15:23:00,67.3,60.3,30.10,SE,133,0.0,2.9,78,0.00,,,0.01,121.0,meteobridge,2013-12-01 21:23:00,
2013-12-01 15:24:00,67.1,60.1,30.10,SSW,192,0.0,2.0,78,0.00,,,0.01,114.0,meteobridge,2013-12-01 21:24:00,
2013-12-01 15:26:00,67.1,60.1,30.09,SSE,167,0.0,0.9,78,0.00,,,0.01,116.0,meteobridge,2013-12-01 21:26:00,
2013-12-01 15:27:00,67.1,60.4,30.09,SSE,167,0.9,2.0,79,0.00,,,0.01,118.0,meteobridge,2013-12-01 21:27:00,
2013-12-01 15:28:00,67.1,60.4,30.09,SSE,167,0.0,2.0,79,0.00,,,0.01,111.0,meteobridge,2013-12-01 21:28:00,
2013-12-01 15:29:00,67.1,60.4,30.09,South,169,0.0,2.0,79,0.00,,,0.01,102.0,meteobridge,2013-12-01 21:29:00,
2013-12-01 15:31:00,67.1,60.4,30.09,South,169,0.0,2.0,79,0.00,,,0.01,90.0,meteobridge,2013-12-01 21:31:00,
2013-12-01 15:32:00,67.1,60.4,30.09,South,169,0.0,0.9,79,0.00,,,0.01,90.0,meteobridge,2013-12-01 21:32:00,
2013-12-01 15:33:00,66.9,60.3,30.09,East,80,0.0,0.0,79,0.00,,,0.01,79.0,meteobridge,2013-12-01 21:33:00,
2013-12-01 15:35:00,66.9,60.3,30.09,SE,128,0.9,0.9,79,0.00,,,0.01,76.0,meteobridge,2013-12-01 21:35:00,
2013-12-01 15:37:00,66.9,60.6,30.09,SE,128,0.0,0.9,80,0.00,,,0.01,70.0,meteobridge,2013-12-01 21:37:00,
2013-12-01 15:38:00,66.9,60.6,30.09,SE,128,0.0,0.0,80,0.00,,,0.01,74.0,meteobridge,2013-12-01 21:38:00,
2013-12-01 15:39:00,66.9,60.6,30.09,SE,128,2.0,2.0,80,0.00,,,0.01,77.0,meteobridge,2013-12-01 21:39:00,
2013-12-01 15:40:00,66.9,60.6,30.09,SE,128,0.0,2.0,80,0.00,,,0.01,88.0,meteobridge,2013-12-01 21:40:00,
2013-12-01 15:42:00,66.7,60.4,30.09,SE,128,0.0,0.9,80,0.00,,,0.01,95.0,meteobridge,2013-12-01 21:42:00,
2013-12-01 15:43:00,66.7,60.4,30.09,SE,128,0.9,0.9,80,0.00,,,0.01,95.0,meteobridge,2013-12-01 21:43:00,
2013-12-01 15:44:00,66.7,60.4,30.09,SE,128,0.0,0.9,80,0.01,,,0.02,95.0,meteobridge,2013-12-01 21:44:00,
2013-12-01 15:45:00,66.7,60.4,30.09,SE,128,0.0,0.9,80,0.01,,,0.02,95.0,meteobridge,2013-12-01 21:45:00,
2013-12-01 15:46:00,66.7,60.4,30.09,SE,128,0.0,0.9,80,0.01,,,0.02,91.0,meteobridge,2013-12-01 21:46:00,
2013-12-01 15:48:00,66.7,60.8,30.09,SE,128,0.0,2.0,81,0.01,,,0.02,95.0,meteobridge,2013-12-01 21:48:00,
2013-12-01 15:49:00,66.7,60.8,30.09,SE,128,0.0,2.0,81,0.01,,,0.02,95.0,meteobridge,2013-12-01 21:49:00,
2013-12-01 15:50:00,66.6,60.6,30.09,SE,128,0.0,0.0,81,0.01,,,0.02,97.0,meteobridge,2013-12-01 21:50:00,
2013-12-01 15:52:00,66.6,60.6,30.09,SE,128,0.0,0.0,81,0.01,,,0.02,100.0,meteobridge,2013-12-01 21:52:00,
2013-12-01 15:53:00,66.6,60.6,30.09,SE,128,0.0,0.9,81,0.01,,,0.02,105.0,meteobridge,2013-12-01 21:53:00,
2013-12-01 15:55:00,66.6,60.6,30.09,SE,128,0.0,0.9,81,0.01,,,0.02,104.0,meteobridge,2013-12-01 21:55:00,
2013-12-01 15:56:00,66.6,60.6,30.09,SE,128,0.0,0.0,81,0.01,,,0.02,97.0,meteobridge,2013-12-01 21:56:00,
2013-12-01 15:57:00,66.6,61.0,30.09,SE,128,0.0,0.0,82,0.01,,,0.02,95.0,meteobridge,2013-12-01 21:57:00,
2013-12-01 15:59:00,66.6,61.0,30.09,SE,138,0.0,0.9,82,0.01,,,0.02,97.0,meteobridge,2013-12-01 21:59:00,
2013-12-01 16:01:00,66.6,61.0,30.08,SE,138,0.0,0.9,82,0.01,,,0.02,91.0,meteobridge,2013-12-01 22:01:00,
2013-12-01 16:02:00,66.4,60.8,30.08,SE,138,0.9,2.0,82,0.01,,,0.02,79.0,meteobridge,2013-12-01 22:02:00,
2013-12-01 16:03:00,66.4,60.4,30.08,SE,138,0.9,2.0,81,0.01,,,0.02,79.0,meteobridge,2013-12-01 22:03:00,
2013-12-01 16:04:00,66.4,60.8,30.08,SE,138,0.0,2.0,82,0.01,,,0.02,74.0,meteobridge,2013-12-01 22:04:00,
2013-12-01 16:05:00,66.4,60.4,30.08,SE,138,0.0,0.9,81,0.01,,,0.02,77.0,meteobridge,2013-12-01 22:05:00,
2013-12-01 16:06:00,66.4,60.4,30.08,SE,138,2.0,2.9,81,0.01,,,0.02,84.0,meteobridge,2013-12-01 22:06:00,
2013-12-01 16:08:00,66.4,60.4,30.08,SE,138,0.0,0.9,81,0.01,,,0.02,91.0,meteobridge,2013-12-01 22:08:00,
2013-12-01 16:09:00,66.4,60.4,30.07,SE,138,0.0,0.9,81,0.01,,,0.02,76.0,meteobridge,2013-12-01 22:09:00,
2013-12-01 16:11:00,66.2,60.3,30.07,SSE,163,2.0,2.0,81,0.01,,,0.02,69.0,meteobridge,2013-12-01 22:11:00,
2013-12-01 16:14:00,66.0,60.1,30.07,SSE,150,0.0,2.9,81,0.01,,,0.02,65.0,meteobridge,2013-12-01 22:14:00,
2013-12-01 16:15:00,66.0,60.1,30.07,SSE,150,0.0,2.9,81,0.01,,,0.02,63.0,meteobridge,2013-12-01 22:15:00,
2013-12-01 16:16:00,66.0,60.1,30.07,SSE,150,0.0,0.9,81,0.01,,,0.02,60.0,meteobridge,2013-12-01 22:16:00,
2013-12-01 16:18:00,66.0,60.1,30.07,SSE,150,0.0,0.0,81,0.01,,,0.02,58.0,meteobridge,2013-12-01 22:18:00,
2013-12-01 16:19:00,66.0,60.1,30.07,SSE,150,0.0,0.0,81,0.01,,,0.02,58.0,meteobridge,2013-12-01 22:19:00,
2013-12-01 16:20:00,66.0,60.1,30.07,SSE,159,0.0,2.0,81,0.01,,,0.02,56.0,meteobridge,2013-12-01 22:20:00,
2013-12-01 16:21:00,66.0,60.1,30.07,SE,130,0.9,2.0,81,0.01,,,0.02,54.0,meteobridge,2013-12-01 22:21:00,
2013-12-01 16:22:00,65.8,60.3,30.07,SE,130,0.9,2.0,82,0.01,,,0.02,54.0,meteobridge,2013-12-01 22:22:00,
2013-12-01 16:24:00,65.8,60.3,30.07,SE,130,0.0,2.0,82,0.01,,,0.02,51.0,meteobridge,2013-12-01 22:24:00,
2013-12-01 16:25:00,65.8,60.3,30.07,SE,130,0.0,2.0,82,0.01,,,0.02,47.0,meteobridge,2013-12-01 22:25:00,
2013-12-01 16:26:00,65.8,60.3,30.07,SE,130,0.0,0.0,82,0.01,,,0.02,46.0,meteobridge,2013-12-01 22:26:00,
2013-12-01 16:29:00,65.8,60.3,30.07,SE,130,0.0,0.0,82,0.01,,,0.02,39.0,meteobridge,2013-12-01 22:29:00,
2013-12-01 16:30:00,65.8,60.3,30.07,SE,130,0.0,0.0,82,0.01,,,0.02,37.0,meteobridge,2013-12-01 22:30:00,
2013-12-01 16:31:00,65.7,60.1,30.07,SE,130,0.0,0.0,82,0.01,,,0.02,37.0,meteobridge,2013-12-01 22:31:00,
2013-12-01 16:32:00,65.7,60.1,30.08,SE,130,0.0,0.0,82,0.01,,,0.02,35.0,meteobridge,2013-12-01 22:32:00,
2013-12-01 16:35:00,65.7,60.1,30.07,SE,130,0.0,0.0,82,0.01,,,0.02,32.0,meteobridge,2013-12-01 22:35:00,
2013-12-01 16:36:00,65.7,60.1,30.07,SE,130,0.0,0.9,82,0.01,,,0.02,30.0,meteobridge,2013-12-01 22:36:00,
2013-12-01 16:37:00,65.7,60.1,30.07,SE,130,0.0,0.9,82,0.01,,,0.02,30.0,meteobridge,2013-12-01 22:37:00,
2013-12-01 16:39:00,65.7,60.1,30.07,SE,130,0.0,0.9,82,0.01,,,0.02,28.0,meteobridge,2013-12-01 22:39:00,
2013-12-01 16:41:00,65.5,59.9,30.07,SE,130,0.0,0.0,82,0.01,,,0.02,26.0,meteobridge,2013-12-01 22:41:00,
2013-12-01 16:43:00,65.5,59.9,30.06,SE,130,0.0,0.0,82,0.01,,,0.02,23.0,meteobridge,2013-12-01 22:43:00,
2013-12-01 16:44:00,65.5,59.9,30.06,SE,130,0.0,0.0,82,0.00,,,0.02,21.0,meteobridge,2013-12-01 22:44:00,
2013-12-01 16:45:00,65.3,59.7,30.07,SE,130,0.0,0.0,82,0.00,,,0.02,19.0,meteobridge,2013-12-01 22:45:00,
2013-12-01 16:49:00,65.1,59.9,30.07,SE,130,0.0,0.0,83,0.00,,,0.02,16.0,meteobridge,2013-12-01 22:49:00,
2013-12-01 16:50:00,65.1,59.9,30.07,SE,130,0.0,0.0,83,0.00,,,0.02,16.0,meteobridge,2013-12-01 22:50:00,
2013-12-01 16:51:00,65.1,59.9,30.06,SE,130,0.0,0.0,83,0.00,,,0.02,14.0,meteobridge,2013-12-01 22:51:00,
2013-12-01 16:52:00,65.1,59.9,30.06,SE,130,0.0,0.0,83,0.00,,,0.02,14.0,meteobridge,2013-12-01 22:52:00,
2013-12-01 16:54:00,64.9,59.7,30.06,SE,130,0.0,0.0,83,0.00,,,0.02,12.0,meteobridge,2013-12-01 22:54:00,
2013-12-01 16:56:00,64.9,59.7,30.07,SE,130,0.0,0.0,83,0.00,,,0.02,11.0,meteobridge,2013-12-01 22:56:00,
2013-12-01 16:57:00,64.9,59.7,30.07,SE,130,0.0,0.0,83,0.00,,,0.02,11.0,meteobridge,2013-12-01 22:57:00,
2013-12-01 16:58:00,64.9,59.7,30.07,SE,130,0.0,0.0,83,0.00,,,0.02,9.0,meteobridge,2013-12-01 22:58:00,
2013-12-01 17:00:00,64.8,59.9,30.07,SE,130,0.0,0.0,84,0.00,,,0.02,7.0,meteobridge,2013-12-01 23:00:00,
2013-12-01 17:02:00,64.6,59.7,30.07,SE,130,0.0,0.0,84,0.00,,,0.02,5.0,meteobridge,2013-12-01 23:02:00,
2013-12-01 17:05:00,64.4,59.5,30.06,SE,130,0.0,0.0,84,0.00,,,0.02,5.0,meteobridge,2013-12-01 23:05:00,
2013-12-01 17:06:00,64.4,59.5,30.06,SE,130,0.0,0.0,84,0.00,,,0.02,5.0,meteobridge,2013-12-01 23:06:00,
2013-12-01 17:07:00,64.2,59.4,30.06,SE,130,0.0,0.0,84,0.00,,,0.02,5.0,meteobridge,2013-12-01 23:07:00,
2013-12-01 17:08:00,64.2,59.4,30.06,SE,130,0.0,0.0,84,0.00,,,0.02,0.0,meteobridge,2013-12-01 23:08:00,
2013-12-01 17:09:00,64.0,59.2,30.06,SE,130,0.0,0.0,84,0.00,,,0.02,0.0,meteobridge,2013-12-01 23:09:00,
2013-12-01 17:10:00,64.0,59.2,30.06,SE,130,0.0,0.0,84,0.00,,,0.02,0.0,meteobridge,2013-12-01 23:10:00,
2013-12-01 17:11:00,64.0,59.2,30.06,SE,130,0.0,0.0,84,0.00,,,0.02,0.0,meteobridge,2013-12-01 23:11:00,
2013-12-01 17:12:00,64.0,59.2,30.06,SE,130,0.0,0.0,84,0.00,,,0.02,0.0,meteobridge,2013-12-01 23:12:00,
2013-12-01 17:15:00,63.9,59.2,30.07,SE,130,0.0,0.0,85,0.00,,,0.02,0.0,meteobridge,2013-12-01 23:15:00,
2013-12-01 17:16:00,63.9,59.2,30.07,SE,130,0.0,0.0,85,0.00,,,0.02,0.0,meteobridge,2013-12-01 23:16:00,
2013-12-01 17:17:00,63.7,59.0,30.07,SE,130,0.0,0.0,85,0.00,,,0.02,0.0,meteobridge,2013-12-01 23:17:00,
2013-12-01 17:19:00,63.7,59.0,30.07,SE,130,0.0,0.0,85,0.00,,,0.02,0.0,meteobridge,2013-12-01 23:19:00,
2013-12-01 17:21:00,63.3,58.8,30.07,SE,130,0.0,0.0,85,0.00,,,0.02,0.0,meteobridge,2013-12-01 23:21:00,
2013-12-01 17:22:00,63.3,58.8,30.07,SE,130,0.0,0.0,85,0.00,,,0.02,0.0,meteobridge,2013-12-01 23:22:00,
2013-12-01 17:23:00,63.3,59.0,30.07,SE,130,0.0,0.0,86,0.00,,,0.02,0.0,meteobridge,2013-12-01 23:23:00,
2013-12-01 17:24:00,63.3,59.0,30.07,SE,130,0.0,0.0,86,0.00,,,0.02,0.0,meteobridge,2013-12-01 23:24:00,
2013-12-01 17:25:00,63.1,58.8,30.07,SE,130,0.0,0.0,86,0.00,,,0.02,0.0,meteobridge,2013-12-01 23:25:00,
2013-12-01 17:28:00,63.1,58.8,30.07,SE,130,0.0,0.0,86,0.00,,,0.02,0.0,meteobridge,2013-12-01 23:28:00,
2013-12-01 17:31:00,63.0,58.6,30.06,SE,130,0.0,0.0,86,0.00,,,0.02,0.0,meteobridge,2013-12-01 23:31:00,
2013-12-01 17:32:00,62.8,58.5,30.06,SE,130,0.0,0.0,86,0.00,,,0.02,0.0,meteobridge,2013-12-01 23:32:00,
2013-12-01 17:33:00,62.8,58.5,30.06,SE,130,0.0,0.0,86,0.00,,,0.02,0.0,meteobridge,2013-12-01 23:33:00,
2013-12-01 17:36:00,62.4,58.1,30.06,SE,130,0.0,0.0,86,0.00,,,0.02,0.0,meteobridge,2013-12-01 23:36:00,
2013-12-01 17:38:00,62.4,58.1,30.06,SE,130,0.0,0.0,86,0.00,,,0.02,0.0,meteobridge,2013-12-01 23:38:00,
2013-12-01 17:39:00,62.4,58.5,30.06,SE,130,0.0,0.0,87,0.00,,,0.02,0.0,meteobridge,2013-12-01 23:39:00,
2013-12-01 17:40:00,62.2,58.3,30.06,SE,130,0.0,0.0,87,0.00,,,0.02,0.0,meteobridge,2013-12-01 23:40:00,
2013-12-01 17:44:00,62.2,58.3,30.06,SE,130,0.0,0.0,87,0.00,,,0.02,0.0,meteobridge,2013-12-01 23:44:00,
2013-12-01 17:45:00,62.1,58.1,30.06,SE,130,0.0,0.0,87,0.00,,,0.02,0.0,meteobridge,2013-12-01 23:45:00,
2013-12-01 17:49:00,61.9,57.9,30.06,SE,130,0.0,0.0,87,0.00,,,0.02,0.0,meteobridge,2013-12-01 23:49:00,
2013-12-01 17:50:00,61.9,57.9,30.06,SE,130,0.0,0.0,87,0.00,,,0.02,0.0,meteobridge,2013-12-01 23:50:00,
2013-12-01 17:51:00,61.7,57.7,30.06,SE,130,0.0,0.0,87,0.00,,,0.02,0.0,meteobridge,2013-12-01 23:51:00,
2013-12-01 17:54:00,61.5,57.9,30.06,SE,130,0.0,0.0,88,0.00,,,0.02,0.0,meteobridge,2013-12-01 23:54:00,
2013-12-01 17:55:00,61.5,57.9,30.06,SE,130,0.0,0.0,88,0.00,,,0.02,0.0,meteobridge,2013-12-01 23:55:00,
2013-12-01 17:58:00,61.5,57.9,30.05,SE,130,0.0,0.0,88,0.00,,,0.02,0.0,meteobridge,2013-12-01 23:58:00,
2013-12-01 17:59:00,61.3,57.7,30.05,SE,130,0.0,0.0,88,0.00,,,0.02,0.0,meteobridge,2013-12-01 23:59:00,
2013-12-01 18:01:00,61.3,57.7,30.06,SE,130,0.0,0.0,88,0.00,,,0.02,0.0,meteobridge,2013-12-02 00:01:00,
2013-12-01 18:04:00,61.2,57.6,30.05,SE,130,0.0,0.9,88,0.00,,,0.02,0.0,meteobridge,2013-12-02 00:04:00,
2013-12-01 18:06:00,61.0,57.4,30.05,SE,130,0.0,0.9,88,0.00,,,0.02,0.0,meteobridge,2013-12-02 00:06:00,
2013-12-01 18:07:00,61.0,57.7,30.05,SE,130,0.0,0.0,89,0.00,,,0.02,0.0,meteobridge,2013-12-02 00:07:00,
2013-12-01 18:09:00,61.0,57.7,30.05,SE,130,0.0,0.0,89,0.00,,,0.02,0.0,meteobridge,2013-12-02 00:09:00,
2013-12-01 18:10:00,61.0,57.7,30.05,SE,130,0.0,0.0,89,0.00,,,0.02,0.0,meteobridge,2013-12-02 00:10:00,
2013-12-01 18:11:00,60.8,57.6,30.05,SE,130,0.0,0.0,89,0.00,,,0.02,0.0,meteobridge,2013-12-02 00:11:00,
2013-12-01 18:12:00,60.6,57.4,30.05,SE,130,0.0,0.0,89,0.00,,,0.02,0.0,meteobridge,2013-12-02 00:12:00,
2013-12-01 18:14:00,60.6,57.4,30.05,SE,130,0.0,0.9,89,0.00,,,0.02,0.0,meteobridge,2013-12-02 00:14:00,
2013-12-01 18:15:00,60.6,57.4,30.05,SE,130,0.0,0.9,89,0.00,,,0.02,0.0,meteobridge,2013-12-02 00:15:00,
2013-12-01 18:16:00,60.6,57.4,30.05,SE,130,0.0,0.9,89,0.00,,,0.02,0.0,meteobridge,2013-12-02 00:16:00,
2013-12-01 18:20:00,60.4,57.6,30.05,SE,130,0.0,0.0,90,0.00,,,0.02,0.0,meteobridge,2013-12-02 00:20:00,
2013-12-01 18:21:00,60.4,57.6,30.05,SE,130,0.0,0.0,90,0.00,,,0.02,0.0,meteobridge,2013-12-02 00:21:00,
2013-12-01 18:22:00,60.4,57.6,30.05,SE,130,0.0,0.0,90,0.00,,,0.02,0.0,meteobridge,2013-12-02 00:22:00,
2013-12-01 18:24:00,60.3,57.0,30.05,SE,130,0.0,0.0,89,0.00,,,0.02,0.0,meteobridge,2013-12-02 00:24:00,
2013-12-01 18:26:00,60.3,57.0,30.06,SE,130,0.0,0.0,89,0.00,,,0.02,0.0,meteobridge,2013-12-02 00:26:00,
2013-12-01 18:27:00,60.3,57.0,30.05,SE,130,0.0,0.0,89,0.00,,,0.02,0.0,meteobridge,2013-12-02 00:27:00,
2013-12-01 18:28:00,60.3,57.0,30.05,SE,130,0.0,0.0,89,0.00,,,0.02,0.0,meteobridge,2013-12-02 00:28:00,
2013-12-01 18:29:00,60.1,57.2,30.06,SE,130,0.0,0.0,90,0.00,,,0.02,0.0,meteobridge,2013-12-02 00:29:00,
2013-12-01 18:30:00,60.1,57.2,30.06,SE,130,0.0,0.0,90,0.00,,,0.02,0.0,meteobridge,2013-12-02 00:30:00,
2013-12-01 18:31:00,60.1,57.2,30.06,SE,130,0.0,0.0,90,0.00,,,0.02,0.0,meteobridge,2013-12-02 00:31:00,
2013-12-01 18:32:00,60.1,57.2,30.06,SE,130,0.0,0.0,90,0.00,,,0.02,0.0,meteobridge,2013-12-02 00:32:00,
2013-12-01 18:34:00,60.1,57.2,30.06,SE,130,0.0,0.0,90,0.00,,,0.02,0.0,meteobridge,2013-12-02 00:34:00,
2013-12-01 18:35:00,59.9,57.0,30.06,SE,130,0.0,0.0,90,0.00,,,0.02,0.0,meteobridge,2013-12-02 00:35:00,
2013-12-01 18:36:00,59.9,57.0,30.05,SE,130,0.0,0.0,90,0.00,,,0.02,0.0,meteobridge,2013-12-02 00:36:00,
2013-12-01 18:39:00,59.9,57.0,30.05,SE,130,0.0,0.0,90,0.00,,,0.02,0.0,meteobridge,2013-12-02 00:39:00,
2013-12-01 18:41:00,59.7,56.8,30.05,SE,130,0.0,0.0,90,0.00,,,0.02,0.0,meteobridge,2013-12-02 00:41:00,
2013-12-01 18:42:00,59.7,56.8,30.05,SE,130,0.0,0.0,90,0.00,,,0.02,0.0,meteobridge,2013-12-02 00:42:00,
2013-12-01 18:44:00,59.7,56.8,30.05,SE,130,0.0,0.0,90,0.00,,,0.02,0.0,meteobridge,2013-12-02 00:44:00,
2013-12-01 18:46:00,59.5,56.7,30.05,SE,130,0.0,0.0,90,0.00,,,0.02,0.0,meteobridge,2013-12-02 00:46:00,
2013-12-01 18:47:00,59.5,56.7,30.05,SE,130,0.0,0.0,90,0.00,,,0.02,0.0,meteobridge,2013-12-02 00:47:00,
2013-12-01 18:48:00,59.5,56.7,30.05,SE,130,0.0,0.0,90,0.00,,,0.02,0.0,meteobridge,2013-12-02 00:48:00,
2013-12-01 18:49:00,59.5,56.7,30.05,SE,130,0.0,0.0,90,0.00,,,0.02,0.0,meteobridge,2013-12-02 00:49:00,
2013-12-01 18:53:00,59.5,56.8,30.05,SE,130,0.0,0.0,91,0.00,,,0.02,0.0,meteobridge,2013-12-02 00:53:00,
2013-12-01 18:54:00,59.5,56.8,30.05,SE,130,0.0,0.0,91,0.00,,,0.02,0.0,meteobridge,2013-12-02 00:54:00,
2013-12-01 18:56:00,59.5,56.8,30.05,SE,130,0.0,0.0,91,0.00,,,0.02,0.0,meteobridge,2013-12-02 00:56:00,
2013-12-01 18:58:00,59.4,56.7,30.05,SE,130,0.0,0.0,91,0.00,,,0.02,0.0,meteobridge,2013-12-02 00:58:00,
2013-12-01 18:59:00,59.4,56.7,30.05,SE,130,0.0,0.0,91,0.00,,,0.02,0.0,meteobridge,2013-12-02 00:59:00,
2013-12-01 19:01:00,59.4,56.7,30.05,SE,130,0.0,0.0,91,0.00,,,0.02,0.0,meteobridge,2013-12-02 01:01:00,
2013-12-01 19:04:00,59.4,56.7,30.05,SE,130,0.0,0.0,91,0.00,,,0.02,0.0,meteobridge,2013-12-02 01:04:00,
2013-12-01 19:05:00,59.4,56.7,30.05,SE,130,0.0,0.0,91,0.00,,,0.02,0.0,meteobridge,2013-12-02 01:05:00,
2013-12-01 19:06:00,59.2,56.5,30.05,SE,130,0.0,0.0,91,0.00,,,0.02,0.0,meteobridge,2013-12-02 01:06:00,
2013-12-01 19:07:00,59.2,56.5,30.05,SE,130,0.0,0.0,91,0.00,,,0.02,0.0,meteobridge,2013-12-02 01:07:00,
2013-12-01 19:09:00,59.2,56.5,30.05,SE,130,0.0,0.0,91,0.00,,,0.02,0.0,meteobridge,2013-12-02 01:09:00,
2013-12-01 19:11:00,59.2,56.5,30.05,SE,130,0.0,0.0,91,0.00,,,0.02,0.0,meteobridge,2013-12-02 01:11:00,
2013-12-01 19:12:00,59.2,56.5,30.05,SE,130,0.0,0.0,91,0.00,,,0.02,0.0,meteobridge,2013-12-02 01:12:00,
2013-12-01 19:16:00,59.0,56.7,30.05,SE,130,0.0,0.0,92,0.00,,,0.02,0.0,meteobridge,2013-12-02 01:16:00,
2013-12-01 19:17:00,59.0,56.7,30.05,SE,130,0.0,0.0,92,0.00,,,0.02,0.0,meteobridge,2013-12-02 01:17:00,
2013-12-01 19:19:00,58.8,56.5,30.05,SE,130,0.0,0.0,92,0.00,,,0.02,0.0,meteobridge,2013-12-02 01:19:00,
2013-12-01 19:21:00,58.8,56.5,30.04,SE,130,0.0,0.0,92,0.00,,,0.02,0.0,meteobridge,2013-12-02 01:21:00,
2013-12-01 19:22:00,58.8,56.5,30.04,SE,130,0.0,0.0,92,0.00,,,0.02,0.0,meteobridge,2013-12-02 01:22:00,
2013-12-01 19:25:00,58.8,56.5,30.04,SE,130,0.0,0.0,92,0.00,,,0.02,0.0,meteobridge,2013-12-02 01:25:00,
2013-12-01 19:26:00,58.8,56.5,30.04,SE,130,0.0,0.0,92,0.00,,,0.02,0.0,meteobridge,2013-12-02 01:26:00,
2013-12-01 19:27:00,58.8,56.5,30.04,SE,130,0.0,0.0,92,0.00,,,0.02,0.0,meteobridge,2013-12-02 01:27:00,
2013-12-01 19:29:00,58.6,56.3,30.05,SE,130,0.0,0.0,92,0.00,,,0.02,0.0,meteobridge,2013-12-02 01:29:00,
2013-12-01 19:30:00,58.6,56.3,30.04,SE,130,0.0,0.0,92,0.00,,,0.02,0.0,meteobridge,2013-12-02 01:30:00,
2013-12-01 19:31:00,58.6,56.3,30.05,SE,130,0.0,0.9,92,0.00,,,0.02,0.0,meteobridge,2013-12-02 01:31:00,
2013-12-01 19:32:00,58.6,56.3,30.05,SE,130,0.0,0.9,92,0.00,,,0.02,0.0,meteobridge,2013-12-02 01:32:00,
2013-12-01 19:34:00,58.6,56.3,30.05,SE,130,0.0,0.0,92,0.00,,,0.02,0.0,meteobridge,2013-12-02 01:34:00,
2013-12-01 19:35:00,58.6,56.3,30.05,SE,130,0.0,0.0,92,0.00,,,0.02,0.0,meteobridge,2013-12-02 01:35:00,
2013-12-01 19:36:00,58.6,56.3,30.05,SE,130,0.0,0.0,92,0.00,,,0.02,0.0,meteobridge,2013-12-02 01:36:00,
2013-12-01 19:38:00,58.6,56.3,30.05,SE,130,0.0,0.0,92,0.00,,,0.02,0.0,meteobridge,2013-12-02 01:38:00,
2013-12-01 19:39:00,58.6,56.3,30.05,SE,130,0.0,0.0,92,0.00,,,0.02,0.0,meteobridge,2013-12-02 01:39:00,
2013-12-01 19:40:00,58.6,56.3,30.05,SE,130,0.0,0.0,92,0.00,,,0.02,0.0,meteobridge,2013-12-02 01:40:00,
2013-12-01 19:42:00,58.6,56.3,30.05,SE,130,0.0,0.0,92,0.00,,,0.02,0.0,meteobridge,2013-12-02 01:42:00,
2013-12-01 19:43:00,58.6,56.7,30.05,SE,128,0.0,0.9,93,0.00,,,0.02,0.0,meteobridge,2013-12-02 01:43:00,
2013-12-01 19:44:00,58.6,56.7,30.05,SE,128,0.0,0.9,93,0.00,,,0.02,0.0,meteobridge,2013-12-02 01:44:00,
2013-12-01 19:45:00,58.6,56.7,30.05,SE,128,0.0,0.0,93,0.00,,,0.02,0.0,meteobridge,2013-12-02 01:45:00,
2013-12-01 19:47:00,58.6,56.7,30.04,SE,128,0.0,0.0,93,0.00,,,0.02,0.0,meteobridge,2013-12-02 01:47:00,
2013-12-01 19:48:00,58.6,56.7,30.04,SE,128,0.0,0.9,93,0.00,,,0.02,0.0,meteobridge,2013-12-02 01:48:00,
2013-12-01 19:49:00,58.6,56.7,30.04,SE,128,0.0,0.0,93,0.00,,,0.02,0.0,meteobridge,2013-12-02 01:49:00,
2013-12-01 19:50:00,58.6,56.7,30.04,SE,128,0.0,0.0,93,0.00,,,0.02,0.0,meteobridge,2013-12-02 01:50:00,
2013-12-01 19:51:00,58.6,56.7,30.04,SE,128,0.0,0.0,93,0.00,,,0.02,0.0,meteobridge,2013-12-02 01:51:00,
2013-12-01 19:52:00,58.6,56.7,30.04,SE,128,0.0,0.0,93,0.00,,,0.02,0.0,meteobridge,2013-12-02 01:52:00,
2013-12-01 19:55:00,58.5,56.5,30.04,SE,128,0.0,0.0,93,0.00,,,0.02,0.0,meteobridge,2013-12-02 01:55:00,
2013-12-01 19:57:00,58.5,56.5,30.04,SE,128,0.0,0.0,93,0.00,,,0.02,0.0,meteobridge,2013-12-02 01:57:00,
2013-12-01 19:58:00,58.5,56.5,30.04,SE,128,0.0,0.0,93,0.00,,,0.02,0.0,meteobridge,2013-12-02 01:58:00,
2013-12-01 20:01:00,58.5,56.5,30.03,SE,128,0.0,0.0,93,0.00,,,0.02,0.0,meteobridge,2013-12-02 02:01:00,
2013-12-01 20:03:00,58.5,56.5,30.04,SE,128,0.0,0.0,93,0.00,,,0.02,0.0,meteobridge,2013-12-02 02:03:00,
2013-12-01 20:04:00,58.5,56.5,30.04,SE,128,0.0,0.0,93,0.00,,,0.02,0.0,meteobridge,2013-12-02 02:04:00,
2013-12-01 20:05:00,58.5,56.5,30.05,SE,128,0.0,0.0,93,0.00,,,0.02,0.0,meteobridge,2013-12-02 02:05:00,
2013-12-01 20:07:00,58.5,56.5,30.05,SE,128,0.0,0.0,93,0.00,,,0.02,0.0,meteobridge,2013-12-02 02:07:00,
2013-12-01 20:09:00,58.5,56.5,30.05,SE,128,0.0,0.0,93,0.00,,,0.02,0.0,meteobridge,2013-12-02 02:09:00,
2013-12-01 20:10:00,58.5,56.5,30.05,SE,128,0.0,0.9,93,0.00,,,0.02,0.0,meteobridge,2013-12-02 02:10:00,
2013-12-01 20:11:00,58.5,56.5,30.05,SE,128,0.9,0.9,93,0.00,,,0.02,0.0,meteobridge,2013-12-02 02:11:00,
2013-12-01 20:12:00,58.5,56.5,30.05,SE,128,0.0,0.9,93,0.00,,,0.02,0.0,meteobridge,2013-12-02 02:12:00,
2013-12-01 20:14:00,58.5,56.5,30.05,SE,128,0.0,0.0,93,0.00,,,0.02,0.0,meteobridge,2013-12-02 02:14:00,
2013-12-01 20:16:00,58.5,56.5,30.04,SE,128,0.0,0.0,93,0.00,,,0.02,0.0,meteobridge,2013-12-02 02:16:00,
2013-12-01 20:17:00,58.5,56.7,30.04,SE,128,0.0,0.0,94,0.00,,,0.02,0.0,meteobridge,2013-12-02 02:17:00,
2013-12-01 20:18:00,58.5,56.7,30.04,SE,128,0.0,0.0,94,0.00,,,0.02,0.0,meteobridge,2013-12-02 02:18:00,
2013-12-01 20:21:00,58.5,56.7,30.04,SE,128,0.0,0.0,94,0.00,,,0.02,0.0,meteobridge,2013-12-02 02:21:00,
2013-12-01 20:22:00,58.5,56.7,30.04,SE,128,0.0,0.0,94,0.00,,,0.02,0.0,meteobridge,2013-12-02 02:22:00,
2013-12-01 20:23:00,58.6,56.8,30.04,SE,128,0.0,0.9,94,0.00,,,0.02,0.0,meteobridge,2013-12-02 02:23:00,
2013-12-01 20:24:00,58.5,56.7,30.04,SE,128,0.0,0.9,94,0.00,,,0.02,0.0,meteobridge,2013-12-02 02:24:00,
2013-12-01 20:26:00,58.6,56.8,30.04,SE,128,0.0,0.0,94,0.00,,,0.02,0.0,meteobridge,2013-12-02 02:26:00,
2013-12-01 20:28:00,58.6,56.8,30.04,SE,128,0.0,0.0,94,0.00,,,0.02,0.0,meteobridge,2013-12-02 02:28:00,
2013-12-01 20:29:00,58.5,56.7,30.04,SE,128,0.0,0.0,94,0.00,,,0.02,0.0,meteobridge,2013-12-02 02:29:00,
2013-12-01 20:31:00,58.5,56.7,30.04,SE,128,0.0,0.0,94,0.00,,,0.02,0.0,meteobridge,2013-12-02 02:31:00,
2013-12-01 20:33:00,58.5,56.7,30.03,SE,128,0.0,2.0,94,0.00,,,0.02,0.0,meteobridge,2013-12-02 02:33:00,
2013-12-01 20:34:00,58.5,56.7,30.03,SE,128,0.0,2.0,94,0.00,,,0.02,0.0,meteobridge,2013-12-02 02:34:00,
2013-12-01 20:35:00,58.5,56.7,30.03,SE,128,0.0,0.0,94,0.00,,,0.02,0.0,meteobridge,2013-12-02 02:35:00,
2013-12-01 20:36:00,58.5,56.7,30.03,SE,128,0.0,2.0,94,0.00,,,0.02,0.0,meteobridge,2013-12-02 02:36:00,
2013-12-01 20:37:00,58.5,56.7,30.03,SE,128,0.0,2.0,94,0.00,,,0.02,0.0,meteobridge,2013-12-02 02:37:00,
2013-12-01 20:39:00,58.6,56.8,30.04,SE,128,0.0,0.0,94,0.00,,,0.02,0.0,meteobridge,2013-12-02 02:39:00,
2013-12-01 20:40:00,58.6,56.8,30.04,SE,128,0.0,0.0,94,0.00,,,0.02,0.0,meteobridge,2013-12-02 02:40:00,
2013-12-01 20:42:00,58.5,56.7,30.05,SE,128,0.0,0.0,94,0.00,,,0.02,0.0,meteobridge,2013-12-02 02:42:00,
2013-12-01 20:43:00,58.5,56.7,30.05,SE,128,0.0,0.0,94,0.00,,,0.02,0.0,meteobridge,2013-12-02 02:43:00,
2013-12-01 20:44:00,58.5,56.7,30.05,SE,128,0.0,0.0,94,0.00,,,0.02,0.0,meteobridge,2013-12-02 02:44:00,
2013-12-01 20:45:00,58.5,56.7,30.04,SE,128,0.0,0.0,94,0.00,,,0.02,0.0,meteobridge,2013-12-02 02:45:00,
2013-12-01 20:48:00,58.5,56.7,30.04,SE,128,0.0,0.9,94,0.00,,,0.02,0.0,meteobridge,2013-12-02 02:48:00,
2013-12-01 20:49:00,58.5,56.7,30.04,SE,128,0.0,0.0,94,0.00,,,0.02,0.0,meteobridge,2013-12-02 02:49:00,
2013-12-01 20:51:00,58.5,56.7,30.04,SE,128,0.0,0.0,94,0.00,,,0.02,0.0,meteobridge,2013-12-02 02:51:00,
2013-12-01 20:53:00,58.5,56.7,30.04,SE,128,0.0,0.0,94,0.00,,,0.02,0.0,meteobridge,2013-12-02 02:53:00,
2013-12-01 20:54:00,58.5,56.7,30.04,SE,128,0.0,0.0,94,0.00,,,0.02,0.0,meteobridge,2013-12-02 02:54:00,
2013-12-01 20:56:00,58.6,56.8,30.03,SE,128,0.0,0.0,94,0.00,,,0.02,0.0,meteobridge,2013-12-02 02:56:00,
2013-12-01 20:57:00,58.5,56.7,30.03,SE,128,0.0,0.0,94,0.00,,,0.02,0.0,meteobridge,2013-12-02 02:57:00,
2013-12-01 20:59:00,58.5,56.7,30.03,SE,128,0.0,0.0,94,0.00,,,0.02,0.0,meteobridge,2013-12-02 02:59:00,
2013-12-01 21:00:00,58.6,56.8,30.03,SE,128,0.0,0.0,94,0.00,,,0.02,0.0,meteobridge,2013-12-02 03:00:00,
2013-12-01 21:02:00,58.5,56.7,30.03,SE,128,0.0,0.0,94,0.00,,,0.02,0.0,meteobridge,2013-12-02 03:02:00,
2013-12-01 21:04:00,58.5,56.7,30.03,SE,128,0.0,0.0,94,0.00,,,0.02,0.0,meteobridge,2013-12-02 03:04:00,
2013-12-01 21:05:00,58.5,56.7,30.03,SE,128,0.0,0.0,94,0.00,,,0.02,0.0,meteobridge,2013-12-02 03:05:00,
2013-12-01 21:06:00,58.5,56.7,30.03,SE,128,0.0,0.0,94,0.00,,,0.02,0.0,meteobridge,2013-12-02 03:06:00,
2013-12-01 21:07:00,58.5,56.7,30.03,SE,128,0.0,0.0,94,0.00,,,0.02,0.0,meteobridge,2013-12-02 03:07:00,
2013-12-01 21:09:00,58.5,57.0,30.03,SE,128,0.0,0.0,95,0.00,,,0.02,0.0,meteobridge,2013-12-02 03:09:00,
2013-12-01 21:10:00,58.5,57.0,30.03,SE,128,0.0,0.0,95,0.00,,,0.02,0.0,meteobridge,2013-12-02 03:10:00,
2013-12-01 21:11:00,58.5,57.0,30.03,SE,128,0.0,0.0,95,0.00,,,0.02,0.0,meteobridge,2013-12-02 03:11:00,
2013-12-01 21:12:00,58.5,57.0,30.03,SE,128,0.0,0.0,95,0.00,,,0.02,0.0,meteobridge,2013-12-02 03:12:00,
2013-12-01 21:14:00,58.5,57.0,30.03,SE,128,0.0,0.0,95,0.00,,,0.02,0.0,meteobridge,2013-12-02 03:14:00,
2013-12-01 21:15:00,58.5,57.0,30.03,SE,128,0.0,0.0,95,0.00,,,0.02,0.0,meteobridge,2013-12-02 03:15:00,
2013-12-01 21:16:00,58.5,57.0,30.03,SE,128,0.0,0.0,95,0.00,,,0.02,0.0,meteobridge,2013-12-02 03:16:00,
2013-12-01 21:18:00,58.5,57.0,30.04,SE,128,0.0,0.0,95,0.00,,,0.02,0.0,meteobridge,2013-12-02 03:18:00,
2013-12-01 21:20:00,58.5,57.0,30.04,SE,128,0.0,0.0,95,0.00,,,0.02,0.0,meteobridge,2013-12-02 03:20:00,
2013-12-01 21:21:00,58.5,57.0,30.04,SE,128,0.0,0.0,95,0.00,,,0.02,0.0,meteobridge,2013-12-02 03:21:00,
2013-12-01 21:22:00,58.5,57.0,30.03,SE,128,0.0,0.0,95,0.00,,,0.02,0.0,meteobridge,2013-12-02 03:22:00,
2013-12-01 21:25:00,58.5,57.0,30.03,SE,128,0.0,0.0,95,0.00,,,0.02,0.0,meteobridge,2013-12-02 03:25:00,
2013-12-01 21:26:00,58.5,57.0,30.03,SE,128,0.0,0.0,95,0.00,,,0.02,0.0,meteobridge,2013-12-02 03:26:00,
2013-12-01 21:28:00,58.5,57.0,30.03,SE,128,0.0,0.0,95,0.00,,,0.02,0.0,meteobridge,2013-12-02 03:28:00,
2013-12-01 21:31:00,58.5,57.0,30.03,SE,128,0.0,0.0,95,0.00,,,0.02,0.0,meteobridge,2013-12-02 03:31:00,
2013-12-01 21:32:00,58.5,57.0,30.03,SE,128,0.0,0.0,95,0.00,,,0.02,0.0,meteobridge,2013-12-02 03:32:00,
2013-12-01 21:33:00,58.5,57.0,30.03,SE,128,0.0,0.9,95,0.00,,,0.02,0.0,meteobridge,2013-12-02 03:33:00,
2013-12-01 21:35:00,58.5,57.0,30.03,SE,128,0.0,0.0,95,0.00,,,0.02,0.0,meteobridge,2013-12-02 03:35:00,
2013-12-01 21:37:00,58.5,57.0,30.03,SE,128,0.0,0.0,95,0.00,,,0.02,0.0,meteobridge,2013-12-02 03:37:00,
2013-12-01 21:38:00,58.5,57.0,30.03,SE,128,0.0,0.0,95,0.00,,,0.02,0.0,meteobridge,2013-12-02 03:38:00,
2013-12-01 21:39:00,58.5,57.0,30.03,SE,128,0.0,0.0,95,0.00,,,0.02,0.0,meteobridge,2013-12-02 03:39:00,
2013-12-01 21:41:00,58.5,57.0,30.03,SE,128,0.0,0.0,95,0.00,,,0.02,0.0,meteobridge,2013-12-02 03:41:00,
2013-12-01 21:42:00,58.5,57.0,30.03,SE,128,0.0,0.9,95,0.00,,,0.02,0.0,meteobridge,2013-12-02 03:42:00,
2013-12-01 21:43:00,58.5,57.0,30.03,SE,128,0.0,0.9,95,0.00,,,0.02,0.0,meteobridge,2013-12-02 03:43:00,
2013-12-01 21:44:00,58.5,57.0,30.03,SE,128,0.0,0.0,95,0.00,,,0.02,0.0,meteobridge,2013-12-02 03:44:00,
2013-12-01 21:45:00,58.5,57.0,30.03,SE,128,0.0,0.0,95,0.00,,,0.02,0.0,meteobridge,2013-12-02 03:45:00,
2013-12-01 21:47:00,58.3,56.8,30.03,SE,128,0.0,0.0,95,0.00,,,0.02,0.0,meteobridge,2013-12-02 03:47:00,
2013-12-01 21:48:00,58.3,56.8,30.03,SE,128,0.0,0.0,95,0.00,,,0.02,0.0,meteobridge,2013-12-02 03:48:00,
2013-12-01 21:49:00,58.3,56.8,30.03,SE,128,0.0,0.0,95,0.00,,,0.02,0.0,meteobridge,2013-12-02 03:49:00,
2013-12-01 21:51:00,58.5,57.0,30.03,SE,128,0.0,0.0,95,0.00,,,0.02,0.0,meteobridge,2013-12-02 03:51:00,
2013-12-01 21:54:00,58.3,56.8,30.03,SE,128,0.0,0.0,95,0.00,,,0.02,0.0,meteobridge,2013-12-02 03:54:00,
2013-12-01 21:55:00,58.5,57.0,30.03,SE,128,0.0,0.0,95,0.00,,,0.02,0.0,meteobridge,2013-12-02 03:55:00,
2013-12-01 21:57:00,58.3,56.8,30.03,SE,128,0.0,0.0,95,0.00,,,0.02,0.0,meteobridge,2013-12-02 03:57:00,
2013-12-01 21:59:00,58.3,56.8,30.03,SE,128,0.0,0.0,95,0.00,,,0.02,0.0,meteobridge,2013-12-02 03:59:00,
2013-12-01 22:00:00,58.3,56.8,30.03,SE,128,0.0,0.0,95,0.00,,,0.02,0.0,meteobridge,2013-12-02 04:00:00,
2013-12-01 22:02:00,58.3,56.8,30.02,SE,128,0.0,0.0,95,0.00,,,0.02,0.0,meteobridge,2013-12-02 04:02:00,
2013-12-01 22:03:00,58.3,56.8,30.02,SE,128,0.0,0.0,95,0.00,,,0.02,0.0,meteobridge,2013-12-02 04:03:00,
2013-12-01 22:04:00,58.3,56.8,30.02,SE,128,0.0,0.0,95,0.00,,,0.02,0.0,meteobridge,2013-12-02 04:04:00,
2013-12-01 22:05:00,58.3,56.8,30.02,SE,128,0.0,0.0,95,0.00,,,0.02,0.0,meteobridge,2013-12-02 04:05:00,
2013-12-01 22:08:00,58.3,56.8,30.02,SE,128,0.0,0.0,95,0.00,,,0.02,0.0,meteobridge,2013-12-02 04:08:00,
2013-12-01 22:09:00,58.3,56.8,30.02,SE,128,0.0,0.0,95,0.00,,,0.02,0.0,meteobridge,2013-12-02 04:09:00,
2013-12-01 22:10:00,58.3,56.8,30.02,SE,128,0.0,0.0,95,0.00,,,0.02,0.0,meteobridge,2013-12-02 04:10:00,
2013-12-01 22:11:00,58.3,56.8,30.02,SE,128,0.0,0.0,95,0.00,,,0.02,0.0,meteobridge,2013-12-02 04:11:00,
2013-12-01 22:12:00,58.3,56.8,30.02,SE,128,0.0,0.9,95,0.00,,,0.02,0.0,meteobridge,2013-12-02 04:12:00,
2013-12-01 22:14:00,58.3,56.8,30.02,SE,128,0.0,0.0,95,0.00,,,0.02,0.0,meteobridge,2013-12-02 04:14:00,
2013-12-01 22:15:00,58.3,56.8,30.02,SE,128,0.0,0.0,95,0.00,,,0.02,0.0,meteobridge,2013-12-02 04:15:00,
2013-12-01 22:17:00,58.3,56.8,30.01,SE,128,0.0,0.0,95,0.00,,,0.02,0.0,meteobridge,2013-12-02 04:17:00,
2013-12-01 22:19:00,58.3,56.8,30.01,SE,128,0.0,0.0,95,0.00,,,0.02,0.0,meteobridge,2013-12-02 04:19:00,
2013-12-01 22:21:00,58.3,56.8,30.01,SE,128,0.0,0.0,95,0.00,,,0.02,0.0,meteobridge,2013-12-02 04:21:00,
2013-12-01 22:22:00,58.3,56.8,30.01,SE,128,0.0,0.0,95,0.00,,,0.02,0.0,meteobridge,2013-12-02 04:22:00,
2013-12-01 22:23:00,58.3,56.8,30.02,SE,128,0.0,0.0,95,0.00,,,0.02,0.0,meteobridge,2013-12-02 04:23:00,
2013-12-01 22:25:00,58.3,56.8,30.01,SE,128,0.0,0.0,95,0.00,,,0.02,0.0,meteobridge,2013-12-02 04:25:00,
2013-12-01 22:27:00,58.3,56.8,30.01,SE,128,0.0,0.0,95,0.00,,,0.02,0.0,meteobridge,2013-12-02 04:27:00,
2013-12-01 22:28:00,58.3,56.8,30.01,SE,128,0.0,0.0,95,0.00,,,0.02,0.0,meteobridge,2013-12-02 04:28:00,
2013-12-01 22:31:00,58.3,56.8,30.01,SE,128,0.0,0.0,95,0.00,,,0.02,0.0,meteobridge,2013-12-02 04:31:00,
2013-12-01 22:32:00,58.3,56.8,30.01,SE,128,0.0,0.0,95,0.00,,,0.02,0.0,meteobridge,2013-12-02 04:32:00,
2013-12-01 22:33:00,58.3,56.8,30.01,SE,128,0.0,0.0,95,0.00,,,0.02,0.0,meteobridge,2013-12-02 04:33:00,
2013-12-01 22:34:00,58.3,56.8,30.01,SE,128,0.0,0.0,95,0.00,,,0.02,0.0,meteobridge,2013-12-02 04:34:00,
2013-12-01 22:38:00,58.3,56.8,29.99,SE,128,0.0,0.9,95,0.00,,,0.02,0.0,meteobridge,2013-12-02 04:38:00,
2013-12-01 22:39:00,58.3,56.8,29.99,SE,128,0.0,0.0,95,0.00,,,0.02,0.0,meteobridge,2013-12-02 04:39:00,
2013-12-01 22:40:00,58.3,56.8,29.99,SE,128,0.0,0.0,95,0.00,,,0.02,0.0,meteobridge,2013-12-02 04:40:00,
2013-12-01 22:42:00,58.3,56.8,30.00,SE,128,0.0,0.0,95,0.00,,,0.02,0.0,meteobridge,2013-12-02 04:42:00,
2013-12-01 22:43:00,58.3,56.8,30.01,SE,128,0.0,0.0,95,0.00,,,0.02,0.0,meteobridge,2013-12-02 04:43:00,
2013-12-01 22:44:00,58.3,56.8,30.01,SE,128,0.0,0.0,95,0.00,,,0.02,0.0,meteobridge,2013-12-02 04:44:00,
2013-12-01 22:45:00,58.3,56.8,30.01,SE,128,0.0,0.0,95,0.00,,,0.02,0.0,meteobridge,2013-12-02 04:45:00,
2013-12-01 22:46:00,58.3,56.8,30.01,SE,128,0.0,0.0,95,0.00,,,0.02,0.0,meteobridge,2013-12-02 04:46:00,
2013-12-01 22:48:00,58.3,56.8,30.00,SE,128,0.0,0.0,95,0.00,,,0.02,0.0,meteobridge,2013-12-02 04:48:00,
2013-12-01 22:49:00,58.3,56.8,30.00,SE,128,0.0,0.0,95,0.00,,,0.02,0.0,meteobridge,2013-12-02 04:49:00,
2013-12-01 22:50:00,58.3,56.8,30.00,SE,128,0.0,0.0,95,0.00,,,0.02,0.0,meteobridge,2013-12-02 04:50:00,
2013-12-01 22:52:00,58.3,56.8,30.01,SE,128,0.0,0.0,95,0.00,,,0.02,0.0,meteobridge,2013-12-02 04:52:00,
2013-12-01 22:54:00,58.3,56.8,30.01,SE,128,0.0,0.0,95,0.00,,,0.02,0.0,meteobridge,2013-12-02 04:54:00,
2013-12-01 22:55:00,58.3,56.8,30.01,SE,128,0.0,0.0,95,0.00,,,0.02,0.0,meteobridge,2013-12-02 04:55:00,
2013-12-01 22:56:00,58.3,56.8,30.01,SE,128,0.0,0.0,95,0.00,,,0.02,0.0,meteobridge,2013-12-02 04:56:00,
2013-12-01 22:57:00,58.3,56.8,30.01,SE,128,0.0,0.0,95,0.00,,,0.02,0.0,meteobridge,2013-12-02 04:57:00,
2013-12-01 22:59:00,58.3,56.8,30.01,SE,128,0.0,0.0,95,0.00,,,0.02,0.0,meteobridge,2013-12-02 04:59:00,
2013-12-01 23:00:00,58.3,56.8,30.00,SE,128,0.0,0.0,95,0.00,,,0.02,0.0,meteobridge,2013-12-02 05:00:00,
2013-12-01 23:01:00,58.3,56.8,30.00,SE,128,0.0,0.0,95,0.00,,,0.02,0.0,meteobridge,2013-12-02 05:01:00,
2013-12-01 23:02:00,58.3,56.8,30.00,SE,128,0.0,0.0,95,0.00,,,0.02,0.0,meteobridge,2013-12-02 05:02:00,
2013-12-01 23:04:00,58.3,56.8,30.01,SE,128,0.0,0.0,95,0.00,,,0.02,0.0,meteobridge,2013-12-02 05:04:00,
2013-12-01 23:06:00,58.1,56.7,30.00,SE,128,0.0,0.0,95,0.00,,,0.02,0.0,meteobridge,2013-12-02 05:06:00,
2013-12-01 23:07:00,58.1,56.7,30.00,SE,128,0.0,0.0,95,0.00,,,0.02,0.0,meteobridge,2013-12-02 05:07:00,
2013-12-01 23:08:00,58.1,56.7,30.00,SE,128,0.0,0.9,95,0.00,,,0.02,0.0,meteobridge,2013-12-02 05:08:00,
2013-12-01 23:11:00,58.1,56.7,30.00,SE,128,0.0,0.0,95,0.00,,,0.02,0.0,meteobridge,2013-12-02 05:11:00,
2013-12-01 23:12:00,58.1,56.7,30.00,SE,128,0.0,0.0,95,0.00,,,0.02,0.0,meteobridge,2013-12-02 05:12:00,
2013-12-01 23:13:00,58.3,56.8,30.01,SE,128,0.0,0.0,95,0.00,,,0.02,0.0,meteobridge,2013-12-02 05:13:00,
2013-12-01 23:14:00,58.3,56.8,30.00,SE,128,0.0,0.0,95,0.00,,,0.02,0.0,meteobridge,2013-12-02 05:14:00,
2013-12-01 23:17:00,58.3,56.8,30.00,SE,128,0.0,0.0,95,0.00,,,0.02,0.0,meteobridge,2013-12-02 05:17:00,
2013-12-01 23:19:00,58.1,56.7,30.00,SE,128,0.0,0.0,95,0.00,,,0.02,0.0,meteobridge,2013-12-02 05:19:00,
2013-12-01 23:20:00,58.3,56.8,30.00,SE,128,0.0,0.0,95,0.00,,,0.02,0.0,meteobridge,2013-12-02 05:20:00,
2013-12-01 23:22:00,58.3,56.8,30.00,SE,128,0.0,0.0,95,0.00,,,0.02,0.0,meteobridge,2013-12-02 05:22:00,
2013-12-01 23:23:00,58.1,56.7,29.99,SE,128,0.0,0.0,95,0.00,,,0.02,0.0,meteobridge,2013-12-02 05:23:00,
2013-12-01 23:24:00,58.1,56.7,29.99,SE,128,0.0,0.0,95,0.00,,,0.02,0.0,meteobridge,2013-12-02 05:24:00,
2013-12-01 23:26:00,58.1,57.0,29.99,SE,128,0.0,0.0,96,0.00,,,0.02,0.0,meteobridge,2013-12-02 05:26:00,
2013-12-01 23:27:00,58.1,57.0,29.99,SE,128,0.0,0.0,96,0.00,,,0.02,0.0,meteobridge,2013-12-02 05:27:00,
2013-12-01 23:28:00,58.1,57.0,30.00,SE,128,0.0,0.0,96,0.00,,,0.02,0.0,meteobridge,2013-12-02 05:28:00,
2013-12-01 23:29:00,58.1,57.0,30.00,SE,128,0.0,0.0,96,0.00,,,0.02,0.0,meteobridge,2013-12-02 05:29:00,
2013-12-01 23:31:00,57.9,56.8,30.00,SE,128,0.0,0.0,96,0.00,,,0.02,0.0,meteobridge,2013-12-02 05:31:00,
2013-12-01 23:32:00,57.9,56.5,30.00,SE,128,0.0,0.0,95,0.00,,,0.02,0.0,meteobridge,2013-12-02 05:32:00,
2013-12-01 23:33:00,57.9,56.8,30.00,SE,128,0.0,0.0,96,0.00,,,0.02,0.0,meteobridge,2013-12-02 05:33:00,
2013-12-01 23:34:00,57.9,56.8,30.00,SE,128,0.0,0.0,96,0.00,,,0.02,0.0,meteobridge,2013-12-02 05:34:00,
2013-12-01 23:35:00,57.9,56.8,30.00,SE,128,0.0,0.0,96,0.00,,,0.02,0.0,meteobridge,2013-12-02 05:35:00,
2013-12-01 23:37:00,57.9,56.8,30.00,SE,128,0.0,0.0,96,0.00,,,0.02,0.0,meteobridge,2013-12-02 05:37:00,
2013-12-01 23:40:00,57.9,56.8,30.00,SE,128,0.0,0.0,96,0.00,,,0.02,0.0,meteobridge,2013-12-02 05:40:00,
2013-12-01 23:42:00,57.9,56.8,30.01,SE,128,0.0,0.0,96,0.00,,,0.02,0.0,meteobridge,2013-12-02 05:42:00,
2013-12-01 23:43:00,57.9,56.8,30.01,SE,128,0.0,0.0,96,0.00,,,0.02,0.0,meteobridge,2013-12-02 05:43:00,
2013-12-01 23:46:00,57.9,56.8,30.01,SE,128,0.0,0.0,96,0.00,,,0.02,0.0,meteobridge,2013-12-02 05:46:00,
2013-12-01 23:48:00,57.7,56.7,30.00,SE,128,0.0,0.0,96,0.00,,,0.02,0.0,meteobridge,2013-12-02 05:48:00,
2013-12-01 23:49:00,57.7,56.7,30.00,SE,128,0.0,0.0,96,0.00,,,0.02,0.0,meteobridge,2013-12-02 05:49:00,
2013-12-01 23:52:00,57.7,56.7,30.00,SE,128,0.0,0.0,96,0.00,,,0.02,0.0,meteobridge,2013-12-02 05:52:00,
2013-12-01 23:53:00,57.7,56.7,30.00,SE,128,0.0,0.0,96,0.00,,,0.02,0.0,meteobridge,2013-12-02 05:53:00,
2013-12-01 23:54:00,57.7,56.7,30.00,SE,128,0.0,0.0,96,0.00,,,0.02,0.0,meteobridge,2013-12-02 05:54:00,
2013-12-01 23:55:00,57.7,56.7,30.00,SE,128,0.0,0.0,96,0.00,,,0.02,0.0,meteobridge,2013-12-02 05:55:00,
2013-12-01 23:57:00,57.7,56.7,30.00,SE,128,0.0,0.0,96,0.00,,,0.02,0.0,meteobridge,2013-12-02 05:57:00,
2013-12-01 23:59:00,57.7,56.7,29.99,SE,128,0.0,0.0,96,0.00,,,0.02,0.0,meteobridge,2013-12-02 05:59:00,